Observation data for Palo Duro Canyon State Park Rim on 08/06/2020      Previous  Date       Current Mesonet Observations  Soil Data  Daily Summary Page  Observations in Plain Language
KPD1 060500Z 14009KT 24/17 A3006 RMK A01 T02380169  RH  065%=      5-min Rain = 0
KPD1 060501Z 12008KT 24/17 A3006 RMK A01 T02380170  RH  065%=      5-min Rain = 0
KPD1 060502Z 15007KT 24/17 A3006 RMK A01 T02380170  RH  066%=      5-min Rain = 0
KPD1 060503Z 14008KT 24/17 A3006 RMK A01 T02380169  RH  066%=      5-min Rain = 0
KPD1 060504Z 14009G16KT 24/17 A3006 RMK A01 T02380170  RH  066%=      5-min Rain = 0
KPD1 060505Z 15008KT 24/17 A3006 RMK A01 T02370170  RH  066%=      5-min Rain = 0
KPD1 060506Z 15008KT 24/17 A3006 RMK A01 T02370170  RH  066%=      5-min Rain = 0
KPD1 060507Z 14005KT 24/17 A3006 RMK A01 T02370170  RH  066%=      5-min Rain = 0
KPD1 060508Z 14005KT 24/17 A3006 RMK A01 T02370170  RH  066%=      5-min Rain = 0
KPD1 060509Z 14009G14KT 24/17 A3006 RMK A01 T02370170  RH  066%=      5-min Rain = 0
KPD1 060510Z 14010KT 24/17 A3006 RMK A01 T02360169  RH  066%=      5-min Rain = 0
KPD1 060511Z 14009G14KT 24/17 A3006 RMK A01 T02370170  RH  066%=      5-min Rain = 0
KPD1 060512Z 15010G15KT 24/17 A3006 RMK A01 T02370170  RH  066%=      5-min Rain = 0
KPD1 060513Z 16012KT 24/17 A3006 RMK A01 T02360170  RH  066%=      5-min Rain = 0
KPD1 060514Z 15012KT 24/17 A3006 RMK A01 T02360170  RH  066%=      5-min Rain = 0
KPD1 060515Z 15008KT 24/17 A3006 RMK A01 T02360170  RH  066%=      5-min Rain = 0
KPD1 060516Z 15009KT 24/17 A3006 RMK A01 T02360170  RH  066%=      5-min Rain = 0
KPD1 060517Z 14010KT 24/17 A3006 RMK A01 T02360170  RH  067%=      5-min Rain = 0
KPD1 060518Z 14009KT 24/17 A3006 RMK A01 T02350170  RH  067%=      5-min Rain = 0
KPD1 060519Z 14011KT 24/17 A3006 RMK A01 T02350170  RH  067%=      5-min Rain = 0
KPD1 060520Z 14009KT 24/17 A3006 RMK A01 T02360171  RH  067%=      5-min Rain = 0
KPD1 060521Z 14009KT 24/17 A3006 RMK A01 T02350170  RH  067%=      5-min Rain = 0
KPD1 060522Z 14012KT 24/17 A3006 RMK A01 T02350170  RH  067%=      5-min Rain = 0
KPD1 060523Z 14010KT 24/17 A3006 RMK A01 T02350170  RH  067%=      5-min Rain = 0
KPD1 060524Z 14008KT 24/17 A3006 RMK A01 T02350170  RH  067%=      5-min Rain = 0
KPD1 060525Z 14011G19KT 24/17 A3006 RMK A01 T02350170  RH  067%=      5-min Rain = 0
KPD1 060526Z 15013G18KT 23/17 A3006 RMK A01 T02340170  RH  067%=      5-min Rain = 0
KPD1 060527Z 14010KT 24/17 A3006 RMK A01 T02350171  RH  067%=      5-min Rain = 0
KPD1 060528Z 14011KT 23/17 A3006 RMK A01 T02340170  RH  067%=      5-min Rain = 0
KPD1 060529Z 15009KT 23/17 A3006 RMK A01 T02340171  RH  067%=      5-min Rain = 0
KPD1 060530Z 14008KT 23/17 A3006 RMK A01 T02340170  RH  067%=      5-min Rain = 0
KPD1 060531Z 14007KT 23/17 A3006 RMK A01 T02340170  RH  067%=      5-min Rain = 0
KPD1 060532Z 13010G17KT 23/17 A3006 RMK A01 T02340170  RH  067%=      5-min Rain = 0
KPD1 060533Z 13011KT 23/17 A3006 RMK A01 T02330170  RH  068%=      5-min Rain = 0
KPD1 060534Z 15006KT 23/17 A3006 RMK A01 T02330170  RH  068%=      5-min Rain = 0
KPD1 060535Z 14008KT 23/17 A3006 RMK A01 T02330170  RH  068%=      5-min Rain = 0
KPD1 060536Z 14008KT 23/17 A3006 RMK A01 T02330170  RH  068%=      5-min Rain = 0
KPD1 060537Z 14009G14KT 23/17 A3006 RMK A01 T02330170  RH  068%=      5-min Rain = 0
KPD1 060538Z 14011KT 23/17 A3006 RMK A01 T02330170  RH  068%=      5-min Rain = 0
KPD1 060539Z 14009KT 23/17 A3006 RMK A01 T02320170  RH  068%=      5-min Rain = 0
KPD1 060540Z 14010G15KT 23/17 A3006 RMK A01 T02320170  RH  068%=      5-min Rain = 0
KPD1 060541Z 14010G15KT 23/17 A3006 RMK A01 T02320170  RH  068%=      5-min Rain = 0
KPD1 060542Z 14012KT 23/17 A3006 RMK A01 T02320170  RH  068%=      5-min Rain = 0
KPD1 060543Z 14007KT 23/17 A3006 RMK A01 T02320170  RH  068%=      5-min Rain = 0
KPD1 060544Z 15008KT 23/17 A3006 RMK A01 T02320170  RH  068%=      5-min Rain = 0
KPD1 060545Z 14009KT 23/17 A3006 RMK A01 T02320170  RH  068%=      5-min Rain = 0
KPD1 060546Z 13011KT 23/17 A3006 RMK A01 T02310170  RH  068%=      5-min Rain = 0
KPD1 060547Z 14008G13KT 23/17 A3006 RMK A01 T02320171  RH  069%=      5-min Rain = 0
KPD1 060548Z 14010KT 23/17 A3006 RMK A01 T02310170  RH  069%=      5-min Rain = 0
KPD1 060549Z 14007KT 23/17 A3006 RMK A01 T02310170  RH  069%=      5-min Rain = 0
KPD1 060550Z 14007KT 23/17 A3006 RMK A01 T02310170  RH  069%=      5-min Rain = 0
KPD1 060551Z 15008G13KT 23/17 A3006 RMK A01 T02310170  RH  069%=      5-min Rain = 0
KPD1 060552Z 15009KT 23/17 A3006 RMK A01 T02300170  RH  069%=      5-min Rain = 0
KPD1 060553Z 13008KT 23/17 A3006 RMK A01 T02300170  RH  069%=      5-min Rain = 0
KPD1 060554Z 15009KT 23/17 A3006 RMK A01 T02300170  RH  069%=      5-min Rain = 0
KPD1 060555Z 15008KT 23/17 A3006 RMK A01 T02300170  RH  069%=      5-min Rain = 0
KPD1 060556Z 14008KT 23/17 A3006 RMK A01 T02290170  RH  069%=      5-min Rain = 0
KPD1 060557Z 14008KT 23/17 A3006 RMK A01 T02290170  RH  069%=      5-min Rain = 0
KPD1 060558Z 14009KT 23/17 A3006 RMK A01 T02290170  RH  069%=      5-min Rain = 0
KPD1 060559Z 13010KT 23/17 A3006 RMK A01 T02290170  RH  069%=      5-min Rain = 0
KPD1 060600Z 13008G13KT 23/17 A3006 RMK A01 T02290170  RH  070%=      5-min Rain = 0
KPD1 060601Z 14009KT 23/17 A3006 RMK A01 T02290170  RH  070%=      5-min Rain = 0
KPD1 060602Z 13010G16KT 23/17 A3006 RMK A01 T02290171  RH  070%=      5-min Rain = 0
KPD1 060603Z 13012G17KT 23/17 A3006 RMK A01 T02290171  RH  070%=      5-min Rain = 0
KPD1 060604Z 14007KT 23/17 A3006 RMK A01 T02290171  RH  070%=      5-min Rain = 0
KPD1 060605Z 13008KT 23/17 A3006 RMK A01 T02290171  RH  070%=      5-min Rain = 0
KPD1 060606Z 13009KT 23/17 A3006 RMK A01 T02280170  RH  070%=      5-min Rain = 0
KPD1 060607Z 13011KT 23/17 A3006 RMK A01 T02280170  RH  070%=      5-min Rain = 0
KPD1 060608Z 12009KT 23/17 A3006 RMK A01 T02280171  RH  070%=      5-min Rain = 0
KPD1 060609Z 14006KT 23/17 A3006 RMK A01 T02280170  RH  070%=      5-min Rain = 0
KPD1 060610Z 15010KT 23/17 A3006 RMK A01 T02280171  RH  070%=      5-min Rain = 0
KPD1 060611Z 14009KT 23/17 A3006 RMK A01 T02280171  RH  070%=      5-min Rain = 0
KPD1 060612Z 14006KT 23/17 A3005 RMK A01 T02270171  RH  070%=      5-min Rain = 0
KPD1 060613Z 15010KT 23/17 A3005 RMK A01 T02270171  RH  070%=      5-min Rain = 0
KPD1 060614Z 14011KT 23/17 A3005 RMK A01 T02270170  RH  070%=      5-min Rain = 0
KPD1 060615Z 16012KT 23/17 A3005 RMK A01 T02270171  RH  071%=      5-min Rain = 0
KPD1 060616Z 14011G16KT 23/17 A3006 RMK A01 T02270171  RH  071%=      5-min Rain = 0
KPD1 060617Z 15009KT 23/17 A3006 RMK A01 T02270171  RH  071%=      5-min Rain = 0
KPD1 060618Z 14013KT 23/17 A3006 RMK A01 T02270171  RH  071%=      5-min Rain = 0
KPD1 060619Z 15009KT 23/17 A3006 RMK A01 T02270171  RH  071%=      5-min Rain = 0
KPD1 060620Z 15010KT 23/17 A3006 RMK A01 T02270171  RH  071%=      5-min Rain = 0
KPD1 060621Z 14007KT 23/17 A3006 RMK A01 T02270171  RH  071%=      5-min Rain = 0
KPD1 060622Z 15010KT 23/17 A3006 RMK A01 T02270171  RH  071%=      5-min Rain = 0
KPD1 060623Z 14011KT 23/17 A3006 RMK A01 T02260171  RH  071%=      5-min Rain = 0
KPD1 060624Z 14010KT 23/17 A3006 RMK A01 T02270171  RH  071%=      5-min Rain = 0
KPD1 060625Z 14011KT 23/17 A3006 RMK A01 T02260171  RH  071%=      5-min Rain = 0
KPD1 060626Z 13010KT 23/17 A3006 RMK A01 T02260171  RH  071%=      5-min Rain = 0
KPD1 060627Z 14007G12KT 23/17 A3005 RMK A01 T02260171  RH  071%=      5-min Rain = 0
KPD1 060628Z 14007G12KT 23/17 A3005 RMK A01 T02260171  RH  071%=      5-min Rain = 0
KPD1 060629Z 15007KT 23/17 A3005 RMK A01 T02260171  RH  071%=      5-min Rain = 0
KPD1 060630Z 14008KT 23/17 A3005 RMK A01 T02250171  RH  071%=      5-min Rain = 0
KPD1 060631Z 14010KT 23/17 A3006 RMK A01 T02250171  RH  071%=      5-min Rain = 0
KPD1 060632Z 15007KT 23/17 A3005 RMK A01 T02250171  RH  072%=      5-min Rain = 0
KPD1 060633Z 14010KT 23/17 A3005 RMK A01 T02250171  RH  072%=      5-min Rain = 0
KPD1 060634Z 15008KT 23/17 A3006 RMK A01 T02250171  RH  072%=      5-min Rain = 0
KPD1 060635Z 14008KT 23/17 A3005 RMK A01 T02250171  RH  072%=      5-min Rain = 0
KPD1 060636Z 14009KT 23/17 A3006 RMK A01 T02250171  RH  072%=      5-min Rain = 0
KPD1 060637Z 15006KT 23/17 A3006 RMK A01 T02250171  RH  072%=      5-min Rain = 0
KPD1 060638Z 15008KT 23/17 A3006 RMK A01 T02250171  RH  072%=      5-min Rain = 0
KPD1 060639Z 15009KT 23/17 A3006 RMK A01 T02250171  RH  072%=      5-min Rain = 0
KPD1 060640Z 14006KT 22/17 A3006 RMK A01 T02240171  RH  072%=      5-min Rain = 0
KPD1 060641Z 13006KT 23/17 A3006 RMK A01 T02250171  RH  072%=      5-min Rain = 0
KPD1 060642Z 13010KT 23/17 A3006 RMK A01 T02250171  RH  072%=      5-min Rain = 0
KPD1 060643Z 13008KT 23/17 A3006 RMK A01 T02250172  RH  072%=      5-min Rain = 0
KPD1 060644Z 15004KT 23/17 A3006 RMK A01 T02250171  RH  072%=      5-min Rain = 0
KPD1 060645Z 13010KT 23/17 A3006 RMK A01 T02250171  RH  072%=      5-min Rain = 0
KPD1 060646Z 14009KT 23/17 A3006 RMK A01 T02250171  RH  072%=      5-min Rain = 0
KPD1 060647Z 14009KT 23/17 A3006 RMK A01 T02250171  RH  072%=      5-min Rain = 0
KPD1 060648Z 14008KT 23/17 A3006 RMK A01 T02250171  RH  072%=      5-min Rain = 0
KPD1 060649Z 14009KT 23/17 A3006 RMK A01 T02250172  RH  072%=      5-min Rain = 0
KPD1 060650Z 14008KT 23/17 A3006 RMK A01 T02250171  RH  072%=      5-min Rain = 0
KPD1 060651Z 13006KT 23/17 A3006 RMK A01 T02250171  RH  072%=      5-min Rain = 0
KPD1 060652Z 15008KT 23/17 A3006 RMK A01 T02250171  RH  072%=      5-min Rain = 0
KPD1 060653Z 14008KT 23/17 A3005 RMK A01 T02250172  RH  072%=      5-min Rain = 0
KPD1 060654Z 14007KT 23/17 A3005 RMK A01 T02250171  RH  072%=      5-min Rain = 0
KPD1 060655Z 13005KT 23/17 A3005 RMK A01 T02250172  RH  072%=      5-min Rain = 0
KPD1 060656Z 13005KT 23/17 A3005 RMK A01 T02250172  RH  072%=      5-min Rain = 0
KPD1 060657Z 12007KT 23/17 A3005 RMK A01 T02250172  RH  072%=      5-min Rain = 0
KPD1 060658Z 14007KT 23/17 A3005 RMK A01 T02250172  RH  072%=      5-min Rain = 0
KPD1 060659Z 14008KT 23/17 A3005 RMK A01 T02250172  RH  072%=      5-min Rain = 0
KPD1 060700Z 15007KT 23/17 A3005 RMK A01 T02250172  RH  072%=      5-min Rain = 0
KPD1 060701Z 14006KT 23/17 A3005 RMK A01 T02250172  RH  072%=      5-min Rain = 0
KPD1 060702Z 14006KT 23/17 A3005 RMK A01 T02250172  RH  072%=      5-min Rain = 0
KPD1 060703Z 14006KT 23/17 A3005 RMK A01 T02250172  RH  072%=      5-min Rain = 0
KPD1 060704Z 14006KT 23/17 A3005 RMK A01 T02250172  RH  072%=      5-min Rain = 0
KPD1 060705Z 14008KT 23/17 A3005 RMK A01 T02250172  RH  072%=      5-min Rain = 0
KPD1 060706Z 13008KT 23/17 A3005 RMK A01 T02250172  RH  072%=      5-min Rain = 0
KPD1 060707Z 12007KT 23/17 A3005 RMK A01 T02250172  RH  072%=      5-min Rain = 0
KPD1 060708Z 13008KT 23/17 A3005 RMK A01 T02250172  RH  072%=      5-min Rain = 0
KPD1 060709Z 14006KT 23/17 A3005 RMK A01 T02260172  RH  072%=      5-min Rain = 0
KPD1 060710Z 14008KT 23/17 A3005 RMK A01 T02260173  RH  072%=      5-min Rain = 0
KPD1 060711Z 13005KT 23/17 A3005 RMK A01 T02260173  RH  072%=      5-min Rain = 0
KPD1 060712Z 14005KT 23/17 A3005 RMK A01 T02260172  RH  072%=      5-min Rain = 0
KPD1 060713Z 12006KT 23/17 A3005 RMK A01 T02250172  RH  072%=      5-min Rain = 0
KPD1 060714Z 11006KT 23/17 A3005 RMK A01 T02250173  RH  072%=      5-min Rain = 0
KPD1 060715Z 10006KT 23/17 A3005 RMK A01 T02250172  RH  072%=      5-min Rain = 0
KPD1 060716Z 11004KT 23/17 A3005 RMK A01 T02250173  RH  072%=      5-min Rain = 0
KPD1 060717Z 13004KT 23/17 A3005 RMK A01 T02250172  RH  072%=      5-min Rain = 0
KPD1 060718Z 12005KT 23/17 A3005 RMK A01 T02250173  RH  072%=      5-min Rain = 0
KPD1 060719Z 13007KT 22/17 A3005 RMK A01 T02240173  RH  072%=      5-min Rain = 0
KPD1 060720Z 14006KT 22/17 A3005 RMK A01 T02240172  RH  072%=      5-min Rain = 0
KPD1 060721Z 13007KT 22/17 A3005 RMK A01 T02240172  RH  072%=      5-min Rain = 0
KPD1 060722Z 14008KT 23/17 A3005 RMK A01 T02250173  RH  072%=      5-min Rain = 0
KPD1 060723Z 14006KT 22/17 A3005 RMK A01 T02240173  RH  073%=      5-min Rain = 0
KPD1 060724Z 14007KT 23/17 A3005 RMK A01 T02250173  RH  073%=      5-min Rain = 0
KPD1 060725Z 13006KT 22/17 A3005 RMK A01 T02240173  RH  072%=      5-min Rain = 0
KPD1 060726Z 13007KT 23/17 A3005 RMK A01 T02250173  RH  073%=      5-min Rain = 0
KPD1 060727Z 16007KT 23/17 A3005 RMK A01 T02250173  RH  073%=      5-min Rain = 0
KPD1 060728Z 14006KT 22/17 A3005 RMK A01 T02240173  RH  073%=      5-min Rain = 0
KPD1 060729Z 14008KT 23/17 A3004 RMK A01 T02250173  RH  073%=      5-min Rain = 0
KPD1 060730Z 15008KT 23/17 A3004 RMK A01 T02250174  RH  073%=      5-min Rain = 0
KPD1 060731Z 14008KT 22/18 A3004 RMK A01 T02240176  RH  074%=      5-min Rain = 0
KPD1 060732Z 14008KT 22/18 A3004 RMK A01 T02230178  RH  075%=      5-min Rain = 0
KPD1 060733Z 14012KT 22/18 A3004 RMK A01 T02220177  RH  076%=      5-min Rain = 0
KPD1 060734Z 15011KT 22/18 A3004 RMK A01 T02210176  RH  076%=      5-min Rain = 0
KPD1 060735Z 14009KT 22/18 A3004 RMK A01 T02210176  RH  076%=      5-min Rain = 0
KPD1 060736Z 15006KT 22/18 A3004 RMK A01 T02210176  RH  076%=      5-min Rain = 0
KPD1 060737Z 14007KT 22/18 A3004 RMK A01 T02200175  RH  075%=      5-min Rain = 0
KPD1 060738Z 15010G15KT 22/18 A3004 RMK A01 T02200175  RH  075%=      5-min Rain = 0
KPD1 060739Z 15009KT 22/18 A3004 RMK A01 T02200175  RH  075%=      5-min Rain = 0
KPD1 060740Z 14009KT 22/18 A3004 RMK A01 T02210175  RH  075%=      5-min Rain = 0
KPD1 060741Z 14008KT 22/18 A3004 RMK A01 T02210175  RH  075%=      5-min Rain = 0
KPD1 060742Z 15010KT 22/18 A3004 RMK A01 T02220175  RH  075%=      5-min Rain = 0
KPD1 060743Z 15007KT 22/18 A3004 RMK A01 T02220175  RH  075%=      5-min Rain = 0
KPD1 060744Z 15008KT 22/17 A3004 RMK A01 T02220174  RH  075%=      5-min Rain = 0
KPD1 060745Z 14007KT 22/18 A3004 RMK A01 T02220175  RH  075%=      5-min Rain = 0
KPD1 060746Z 14006KT 22/18 A3004 RMK A01 T02220175  RH  075%=      5-min Rain = 0
KPD1 060747Z 14010KT 22/18 A3004 RMK A01 T02220175  RH  075%=      5-min Rain = 0
KPD1 060748Z 14009KT 22/18 A3004 RMK A01 T02220175  RH  075%=      5-min Rain = 0
KPD1 060749Z 15006KT 22/18 A3004 RMK A01 T02220175  RH  074%=      5-min Rain = 0
KPD1 060750Z 13006KT 22/18 A3004 RMK A01 T02230175  RH  074%=      5-min Rain = 0
KPD1 060751Z 14007KT 22/18 A3004 RMK A01 T02230176  RH  075%=      5-min Rain = 0
KPD1 060752Z 15009KT 22/18 A3004 RMK A01 T02230175  RH  075%=      5-min Rain = 0
KPD1 060753Z 15009KT 22/18 A3004 RMK A01 T02230175  RH  074%=      5-min Rain = 0
KPD1 060754Z 16007KT 22/18 A3003 RMK A01 T02220175  RH  074%=      5-min Rain = 0
KPD1 060755Z 15006KT 22/18 A3003 RMK A01 T02230175  RH  074%=      5-min Rain = 0
KPD1 060756Z 16007KT 22/18 A3003 RMK A01 T02230175  RH  075%=      5-min Rain = 0
KPD1 060757Z 14008KT 22/18 A3003 RMK A01 T02220175  RH  075%=      5-min Rain = 0
KPD1 060758Z 17006KT 22/18 A3003 RMK A01 T02220176  RH  075%=      5-min Rain = 0
KPD1 060759Z 16009G14KT 22/18 A3003 RMK A01 T02220175  RH  075%=      5-min Rain = 0
KPD1 060800Z 15008KT 22/18 A3003 RMK A01 T02220175  RH  075%=      5-min Rain = 0
KPD1 060801Z 16009KT 22/18 A3003 RMK A01 T02220176  RH  075%=      5-min Rain = 0
KPD1 060802Z 15008KT 22/18 A3003 RMK A01 T02220176  RH  075%=      5-min Rain = 0
KPD1 060803Z 16009G14KT 22/18 A3003 RMK A01 T02210175  RH  075%=      5-min Rain = 0
KPD1 060804Z 15008KT 22/18 A3003 RMK A01 T02210175  RH  075%=      5-min Rain = 0
KPD1 060805Z 16008KT 22/18 A3003 RMK A01 T02210175  RH  075%=      5-min Rain = 0
KPD1 060806Z 17009KT 22/18 A3003 RMK A01 T02210175  RH  075%=      5-min Rain = 0
KPD1 060807Z 17009KT 22/18 A3003 RMK A01 T02210176  RH  076%=      5-min Rain = 0
KPD1 060808Z 16009KT 22/18 A3003 RMK A01 T02200176  RH  076%=      5-min Rain = 0
KPD1 060809Z 17011KT 22/18 A3003 RMK A01 T02200176  RH  076%=      5-min Rain = 0
KPD1 060810Z 17011KT 22/18 A3003 RMK A01 T02210177  RH  076%=      5-min Rain = 0
KPD1 060811Z 17010KT 22/18 A3003 RMK A01 T02200176  RH  076%=      5-min Rain = 0
KPD1 060812Z 15008KT 22/18 A3002 RMK A01 T02210176  RH  076%=      5-min Rain = 0
KPD1 060813Z 17012KT 22/18 A3003 RMK A01 T02210177  RH  076%=      5-min Rain = 0
KPD1 060814Z 16011KT 22/18 A3002 RMK A01 T02210177  RH  076%=      5-min Rain = 0
KPD1 060815Z 16011G17KT 22/18 A3002 RMK A01 T02210177  RH  076%=      5-min Rain = 0
KPD1 060816Z 15010G15KT 22/18 A3002 RMK A01 T02210177  RH  076%=      5-min Rain = 0
KPD1 060817Z 16009KT 22/18 A3002 RMK A01 T02210177  RH  076%=      5-min Rain = 0
KPD1 060818Z 16012G17KT 22/18 A3002 RMK A01 T02220177  RH  076%=      5-min Rain = 0
KPD1 060819Z 16010KT 22/18 A3002 RMK A01 T02210177  RH  076%=      5-min Rain = 0
KPD1 060820Z 16010G17KT 22/18 A3002 RMK A01 T02220178  RH  076%=      5-min Rain = 0
KPD1 060821Z 16010G15KT 22/18 A3002 RMK A01 T02220178  RH  076%=      5-min Rain = 0
KPD1 060822Z 16009KT 22/18 A3002 RMK A01 T02220178  RH  076%=      5-min Rain = 0
KPD1 060823Z 16009KT 22/18 A3002 RMK A01 T02220178  RH  076%=      5-min Rain = 0
KPD1 060824Z 15011KT 22/18 A3002 RMK A01 T02220178  RH  076%=      5-min Rain = 0
KPD1 060825Z 15010KT 22/18 A3002 RMK A01 T02220178  RH  076%=      5-min Rain = 0
KPD1 060826Z 16009KT 22/18 A3002 RMK A01 T02220179  RH  076%=      5-min Rain = 0
KPD1 060827Z 16008KT 22/18 A3002 RMK A01 T02220179  RH  076%=      5-min Rain = 0
KPD1 060828Z 15008KT 22/18 A3002 RMK A01 T02230179  RH  076%=      5-min Rain = 0
KPD1 060829Z 16011KT 22/18 A3002 RMK A01 T02220179  RH  076%=      5-min Rain = 0
KPD1 060830Z 16009KT 22/18 A3002 RMK A01 T02220179  RH  076%=      5-min Rain = 0
KPD1 060831Z 16012G17KT 22/18 A3002 RMK A01 T02220179  RH  076%=      5-min Rain = 0
KPD1 060832Z 16012KT 22/18 A3002 RMK A01 T02220179  RH  076%=      5-min Rain = 0
KPD1 060833Z 16011KT 22/18 A3002 RMK A01 T02220179  RH  076%=      5-min Rain = 0
KPD1 060834Z 16012KT 22/18 A3002 RMK A01 T02220179  RH  076%=      5-min Rain = 0
KPD1 060835Z 16011KT 22/18 A3002 RMK A01 T02230179  RH  076%=      5-min Rain = 0
KPD1 060836Z 15011KT 22/18 A3002 RMK A01 T02220179  RH  076%=      5-min Rain = 0
KPD1 060837Z 15010KT 22/18 A3002 RMK A01 T02220179  RH  076%=      5-min Rain = 0
KPD1 060838Z 16011KT 22/18 A3002 RMK A01 T02220179  RH  077%=      5-min Rain = 0
KPD1 060839Z 16009KT 22/18 A3002 RMK A01 T02220179  RH  076%=      5-min Rain = 0
KPD1 060840Z 17009KT 22/18 A3002 RMK A01 T02220179  RH  076%=      5-min Rain = 0
KPD1 060841Z 17008KT 22/18 A3002 RMK A01 T02220179  RH  076%=      5-min Rain = 0
KPD1 060842Z 16011KT 22/18 A3002 RMK A01 T02210178  RH  077%=      5-min Rain = 0
KPD1 060843Z 17011KT 22/18 A3002 RMK A01 T02210178  RH  077%=      5-min Rain = 0
KPD1 060844Z 16008KT 22/18 A3002 RMK A01 T02220179  RH  077%=      5-min Rain = 0
KPD1 060845Z 16010G15KT 22/18 A3002 RMK A01 T02210178  RH  077%=      5-min Rain = 0
KPD1 060846Z 16010KT 22/18 A3002 RMK A01 T02210179  RH  077%=      5-min Rain = 0
KPD1 060847Z 16010KT 22/18 A3002 RMK A01 T02210179  RH  077%=      5-min Rain = 0
KPD1 060848Z 15012KT 22/18 A3002 RMK A01 T02210179  RH  077%=      5-min Rain = 0
KPD1 060849Z 16011KT 22/18 A3002 RMK A01 T02210179  RH  077%=      5-min Rain = 0
KPD1 060850Z 16010KT 22/18 A3002 RMK A01 T02210179  RH  077%=      5-min Rain = 0
KPD1 060851Z 16009KT 22/18 A3002 RMK A01 T02210179  RH  077%=      5-min Rain = 0
KPD1 060852Z 16010G15KT 22/18 A3002 RMK A01 T02210180  RH  077%=      5-min Rain = 0
KPD1 060853Z 16009KT 22/18 A3002 RMK A01 T02210180  RH  078%=      5-min Rain = 0
KPD1 060854Z 16013KT 22/18 A3002 RMK A01 T02200180  RH  078%=      5-min Rain = 0
KPD1 060855Z 16010KT 22/18 A3002 RMK A01 T02200180  RH  078%=      5-min Rain = 0
KPD1 060856Z 15011G16KT 22/18 A3002 RMK A01 T02210180  RH  078%=      5-min Rain = 0
KPD1 060857Z 15009KT 22/18 A3002 RMK A01 T02200180  RH  078%=      5-min Rain = 0
KPD1 060858Z 15011KT 22/18 A3002 RMK A01 T02200180  RH  078%=      5-min Rain = 0
KPD1 060859Z 15008KT 22/18 A3002 RMK A01 T02200180  RH  078%=      5-min Rain = 0
KPD1 060900Z 15009KT 22/18 A3002 RMK A01 T02200180  RH  078%=      5-min Rain = 0
KPD1 060901Z 15010KT 22/18 A3002 RMK A01 T02200180  RH  078%=      5-min Rain = 0
KPD1 060902Z 15009KT 22/18 A3002 RMK A01 T02190180  RH  079%=      5-min Rain = 0
KPD1 060903Z 15007KT 22/18 A3002 RMK A01 T02190181  RH  079%=      5-min Rain = 0
KPD1 060904Z 15008KT 22/18 A3002 RMK A01 T02190181  RH  079%=      5-min Rain = 0
KPD1 060905Z 14009KT 22/18 A3002 RMK A01 T02190181  RH  079%=      5-min Rain = 0
KPD1 060906Z 16011KT 22/18 A3002 RMK A01 T02190181  RH  079%=      5-min Rain = 0
KPD1 060907Z 15008KT 22/18 A3002 RMK A01 T02180181  RH  079%=      5-min Rain = 0
KPD1 060908Z 16010KT 22/18 A3002 RMK A01 T02190181  RH  079%=      5-min Rain = 0
KPD1 060909Z 16010KT 22/18 A3002 RMK A01 T02180182  RH  079%=      5-min Rain = 0
KPD1 060910Z 16011KT 22/18 A3002 RMK A01 T02180182  RH  080%=      5-min Rain = 0
KPD1 060911Z 16009KT 22/18 A3002 RMK A01 T02180182  RH  080%=      5-min Rain = 0
KPD1 060912Z 16008KT 22/18 A3002 RMK A01 T02180182  RH  080%=      5-min Rain = 0
KPD1 060913Z 15010KT 22/18 A3002 RMK A01 T02180182  RH  080%=      5-min Rain = 0
KPD1 060914Z 15008KT 22/18 A3002 RMK A01 T02170182  RH  080%=      5-min Rain = 0
KPD1 060915Z 16010KT 22/18 A3002 RMK A01 T02180182  RH  080%=      5-min Rain = 0
KPD1 060916Z 15010KT 22/18 A3002 RMK A01 T02170182  RH  080%=      5-min Rain = 0
KPD1 060917Z 16011KT 22/18 A3002 RMK A01 T02170182  RH  080%=      5-min Rain = 0
KPD1 060918Z 16010KT 22/18 A3002 RMK A01 T02170182  RH  081%=      5-min Rain = 0
KPD1 060919Z 15011KT 22/18 A3002 RMK A01 T02170182  RH  081%=      5-min Rain = 0
KPD1 060920Z 16012KT 22/18 A3002 RMK A01 T02170183  RH  081%=      5-min Rain = 0
KPD1 060921Z 17010KT 22/18 A3002 RMK A01 T02170183  RH  081%=      5-min Rain = 0
KPD1 060922Z 16011KT 22/18 A3003 RMK A01 T02170183  RH  081%=      5-min Rain = 0
KPD1 060923Z 16011KT 22/18 A3003 RMK A01 T02170183  RH  081%=      5-min Rain = 0
KPD1 060924Z 16008KT 22/18 A3003 RMK A01 T02170183  RH  081%=      5-min Rain = 0
KPD1 060925Z 16007KT 22/18 A3003 RMK A01 T02170183  RH  081%=      5-min Rain = 0
KPD1 060926Z 15010KT 22/18 A3003 RMK A01 T02160183  RH  081%=      5-min Rain = 0
KPD1 060927Z 17011KT 22/18 A3002 RMK A01 T02160183  RH  081%=      5-min Rain = 0
KPD1 060928Z 16006KT 22/18 A3002 RMK A01 T02160183  RH  081%=      5-min Rain = 0
KPD1 060929Z 16008KT 22/18 A3002 RMK A01 T02160183  RH  081%=      5-min Rain = 0
KPD1 060930Z 16008KT 22/18 A3002 RMK A01 T02160183  RH  081%=      5-min Rain = 0
KPD1 060931Z 15009G14KT 22/18 A3002 RMK A01 T02160183  RH  081%=      5-min Rain = 0
KPD1 060932Z 16011KT 22/18 A3002 RMK A01 T02160183  RH  081%=      5-min Rain = 0
KPD1 060933Z 17009KT 22/18 A3002 RMK A01 T02150182  RH  082%=      5-min Rain = 0
KPD1 060934Z 16008KT 22/18 A3002 RMK A01 T02150183  RH  082%=      5-min Rain = 0
KPD1 060935Z 16010KT 22/18 A3002 RMK A01 T02150183  RH  082%=      5-min Rain = 0
KPD1 060936Z 16010KT 22/18 A3002 RMK A01 T02150183  RH  082%=      5-min Rain = 0
KPD1 060937Z 16009G14KT 22/18 A3002 RMK A01 T02150183  RH  082%=      5-min Rain = 0
KPD1 060938Z 16008KT 22/18 A3002 RMK A01 T02160183  RH  082%=      5-min Rain = 0
KPD1 060939Z 15010KT 22/18 A3002 RMK A01 T02150183  RH  082%=      5-min Rain = 0
KPD1 060940Z 16008G13KT 22/18 A3002 RMK A01 T02150183  RH  082%=      5-min Rain = 0
KPD1 060941Z 15011KT 22/18 A3002 RMK A01 T02150183  RH  082%=      5-min Rain = 0
KPD1 060942Z 16011KT 22/18 A3002 RMK A01 T02150184  RH  082%=      5-min Rain = 0
KPD1 060943Z 16011KT 21/18 A3002 RMK A01 T02140183  RH  082%=      5-min Rain = 0
KPD1 060944Z 16008KT 22/18 A3002 RMK A01 T02150184  RH  082%=      5-min Rain = 0
KPD1 060945Z 15009KT 21/18 A3002 RMK A01 T02140183  RH  082%=      5-min Rain = 0
KPD1 060946Z 15008KT 21/18 A3002 RMK A01 T02140183  RH  083%=      5-min Rain = 0
KPD1 060947Z 16010KT 21/18 A3002 RMK A01 T02140183  RH  083%=      5-min Rain = 0
KPD1 060948Z 15009KT 21/18 A3002 RMK A01 T02130183  RH  083%=      5-min Rain = 0
KPD1 060949Z 15008G14KT 21/18 A3002 RMK A01 T02130183  RH  083%=      5-min Rain = 0
KPD1 060950Z 15011KT 21/18 A3002 RMK A01 T02130183  RH  083%=      5-min Rain = 0
KPD1 060951Z 14009KT 21/18 A3002 RMK A01 T02130183  RH  083%=      5-min Rain = 0
KPD1 060952Z 15010KT 21/18 A3002 RMK A01 T02130183  RH  083%=      5-min Rain = 0
KPD1 060953Z 15009KT 21/18 A3002 RMK A01 T02130183  RH  083%=      5-min Rain = 0
KPD1 060954Z 15011KT 21/18 A3002 RMK A01 T02130183  RH  083%=      5-min Rain = 0
KPD1 060955Z 16012KT 21/18 A3001 RMK A01 T02130183  RH  083%=      5-min Rain = 0
KPD1 060956Z 16009KT 21/18 A3001 RMK A01 T02130183  RH  083%=      5-min Rain = 0
KPD1 060957Z 16011KT 21/18 A3001 RMK A01 T02130183  RH  083%=      5-min Rain = 0
KPD1 060958Z 16009KT 21/18 A3001 RMK A01 T02120183  RH  083%=      5-min Rain = 0
KPD1 060959Z 16010KT 21/18 A3001 RMK A01 T02120183  RH  084%=      5-min Rain = 0
KPD1 061000Z 16009KT 21/18 A3001 RMK A01 T02120183  RH  084%=      5-min Rain = 0
KPD1 061001Z 16008G13KT 21/18 A3001 RMK A01 T02120183  RH  084%=      5-min Rain = 0
KPD1 061002Z 16007KT 21/18 A3001 RMK A01 T02110183  RH  084%=      5-min Rain = 0
KPD1 061003Z 15009KT 21/18 A3001 RMK A01 T02110183  RH  084%=      5-min Rain = 0
KPD1 061004Z 15010KT 21/18 A3001 RMK A01 T02110183  RH  084%=      5-min Rain = 0
KPD1 061005Z 16009KT 21/18 A3001 RMK A01 T02110184  RH  084%=      5-min Rain = 0
KPD1 061006Z 15009KT 21/18 A3001 RMK A01 T02110184  RH  084%=      5-min Rain = 0
KPD1 061007Z 16010KT 21/18 A3001 RMK A01 T02110184  RH  085%=      5-min Rain = 0
KPD1 061008Z 15010KT 21/18 A3001 RMK A01 T02100184  RH  085%=      5-min Rain = 0
KPD1 061009Z 17009KT 21/18 A3001 RMK A01 T02100184  RH  085%=      5-min Rain = 0
KPD1 061010Z 16010KT 21/18 A3002 RMK A01 T02100184  RH  085%=      5-min Rain = 0
KPD1 061011Z 15008KT 21/18 A3002 RMK A01 T02100184  RH  085%=      5-min Rain = 0
KPD1 061012Z 15008KT 21/18 A3001 RMK A01 T02100184  RH  085%=      5-min Rain = 0
KPD1 061013Z 16008G13KT 21/18 A3001 RMK A01 T02100184  RH  085%=      5-min Rain = 0
KPD1 061014Z 15010KT 21/18 A3001 RMK A01 T02100184  RH  085%=      5-min Rain = 0
KPD1 061015Z 15009KT 21/18 A3001 RMK A01 T02090184  RH  085%=      5-min Rain = 0
KPD1 061016Z 15010KT 21/18 A3001 RMK A01 T02090184  RH  085%=      5-min Rain = 0
KPD1 061017Z 16009KT 21/18 A3001 RMK A01 T02090184  RH  085%=      5-min Rain = 0
KPD1 061018Z 14009KT 21/19 A3001 RMK A01 T02090185  RH  086%=      5-min Rain = 0
KPD1 061019Z 15009KT 21/19 A3001 RMK A01 T02100185  RH  086%=      5-min Rain = 0
KPD1 061020Z 15009KT 21/19 A3001 RMK A01 T02090185  RH  086%=      5-min Rain = 0
KPD1 061021Z 15006KT 21/19 A3001 RMK A01 T02090185  RH  086%=      5-min Rain = 0
KPD1 061022Z 15006KT 21/19 A3001 RMK A01 T02090185  RH  086%=      5-min Rain = 0
KPD1 061023Z 16005KT 21/19 A3002 RMK A01 T02090185  RH  086%=      5-min Rain = 0
KPD1 061024Z 16008KT 21/19 A3002 RMK A01 T02090185  RH  086%=      5-min Rain = 0
KPD1 061025Z 15009KT 21/19 A3002 RMK A01 T02090185  RH  086%=      5-min Rain = 0
KPD1 061026Z 15007KT 21/19 A3002 RMK A01 T02090186  RH  087%=      5-min Rain = 0
KPD1 061027Z 16009KT 21/19 A3002 RMK A01 T02080185  RH  087%=      5-min Rain = 0
KPD1 061028Z 15008KT 21/19 A3002 RMK A01 T02080186  RH  087%=      5-min Rain = 0
KPD1 061029Z 16009KT 21/19 A3002 RMK A01 T02080186  RH  087%=      5-min Rain = 0
KPD1 061030Z 15009KT 21/19 A3002 RMK A01 T02090186  RH  087%=      5-min Rain = 0
KPD1 061031Z 16007KT 21/19 A3002 RMK A01 T02090186  RH  087%=      5-min Rain = 0
KPD1 061032Z 16007KT 21/19 A3002 RMK A01 T02080186  RH  087%=      5-min Rain = 0
KPD1 061033Z 16008KT 21/19 A3002 RMK A01 T02080186  RH  087%=      5-min Rain = 0
KPD1 061034Z 15009KT 21/19 A3002 RMK A01 T02080186  RH  087%=      5-min Rain = 0
KPD1 061035Z 15007KT 21/19 A3002 RMK A01 T02080187  RH  087%=      5-min Rain = 0
KPD1 061036Z 15007KT 21/19 A3002 RMK A01 T02080186  RH  087%=      5-min Rain = 0
KPD1 061037Z 15007KT 21/19 A3002 RMK A01 T02080186  RH  087%=      5-min Rain = 0
KPD1 061038Z 16009KT 21/19 A3002 RMK A01 T02080187  RH  087%=      5-min Rain = 0
KPD1 061039Z 15009KT 21/19 A3002 RMK A01 T02080186  RH  087%=      5-min Rain = 0
KPD1 061040Z 15007KT 21/19 A3002 RMK A01 T02080186  RH  087%=      5-min Rain = 0
KPD1 061041Z 15009KT 21/19 A3002 RMK A01 T02080186  RH  087%=      5-min Rain = 0
KPD1 061042Z 16009KT 21/19 A3002 RMK A01 T02080186  RH  087%=      5-min Rain = 0
KPD1 061043Z 15009KT 21/19 A3002 RMK A01 T02080186  RH  087%=      5-min Rain = 0
KPD1 061044Z 15008KT 21/19 A3002 RMK A01 T02080186  RH  087%=      5-min Rain = 0
KPD1 061045Z 15008KT 21/19 A3002 RMK A01 T02080186  RH  087%=      5-min Rain = 0
KPD1 061046Z 16008KT 21/19 A3002 RMK A01 T02080186  RH  087%=      5-min Rain = 0
KPD1 061047Z 15009KT 21/19 A3002 RMK A01 T02070185  RH  087%=      5-min Rain = 0
KPD1 061048Z 16008KT 21/19 A3002 RMK A01 T02080186  RH  087%=      5-min Rain = 0
KPD1 061049Z 15009KT 21/19 A3002 RMK A01 T02080186  RH  087%=      5-min Rain = 0
KPD1 061050Z 16007KT 21/19 A3002 RMK A01 T02080186  RH  087%=      5-min Rain = 0
KPD1 061051Z 16007KT 21/19 A3002 RMK A01 T02080186  RH  087%=      5-min Rain = 0
KPD1 061052Z 16009KT 21/19 A3002 RMK A01 T02080186  RH  087%=      5-min Rain = 0
KPD1 061053Z 15010KT 21/19 A3002 RMK A01 T02080186  RH  087%=      5-min Rain = 0
KPD1 061054Z 15010KT 21/19 A3002 RMK A01 T02080186  RH  087%=      5-min Rain = 0
KPD1 061055Z 15012KT 21/19 A3002 RMK A01 T02080186  RH  087%=      5-min Rain = 0
KPD1 061056Z 16009KT 21/19 A3002 RMK A01 T02080186  RH  087%=      5-min Rain = 0
KPD1 061057Z 16008KT 21/19 A3002 RMK A01 T02080186  RH  087%=      5-min Rain = 0
KPD1 061058Z 16009KT 21/19 A3002 RMK A01 T02080186  RH  087%=      5-min Rain = 0
KPD1 061059Z 15008G13KT 21/19 A3002 RMK A01 T02080186  RH  087%=      5-min Rain = 0
KPD1 061100Z 16008KT 21/19 A3002 RMK A01 T02070185  RH  087%=      5-min Rain = 0
KPD1 061101Z 16008KT 21/19 A3002 RMK A01 T02070185  RH  087%=      5-min Rain = 0
KPD1 061102Z 17008KT 21/19 A3002 RMK A01 T02070185  RH  087%=      5-min Rain = 0
KPD1 061103Z 16008KT 21/19 A3002 RMK A01 T02070185  RH  087%=      5-min Rain = 0
KPD1 061104Z 16009KT 21/19 A3002 RMK A01 T02070185  RH  087%=      5-min Rain = 0
KPD1 061105Z 16010KT 21/19 A3002 RMK A01 T02070185  RH  087%=      5-min Rain = 0
KPD1 061106Z 16008KT 21/19 A3002 RMK A01 T02070185  RH  087%=      5-min Rain = 0
KPD1 061107Z 16010KT 21/19 A3002 RMK A01 T02070185  RH  087%=      5-min Rain = 0
KPD1 061108Z 15010KT 21/19 A3002 RMK A01 T02070185  RH  087%=      5-min Rain = 0
KPD1 061109Z 16010KT 21/19 A3002 RMK A01 T02070186  RH  087%=      5-min Rain = 0
KPD1 061110Z 16010KT 21/19 A3002 RMK A01 T02070186  RH  087%=      5-min Rain = 0
KPD1 061111Z 16010KT 21/19 A3002 RMK A01 T02070186  RH  087%=      5-min Rain = 0
KPD1 061112Z 16009KT 21/19 A3002 RMK A01 T02070186  RH  087%=      5-min Rain = 0
KPD1 061113Z 16010KT 21/19 A3002 RMK A01 T02070186  RH  087%=      5-min Rain = 0
KPD1 061114Z 16009KT 21/19 A3002 RMK A01 T02070186  RH  088%=      5-min Rain = 0
KPD1 061115Z 15009KT 21/19 A3002 RMK A01 T02070186  RH  088%=      5-min Rain = 0
KPD1 061116Z 16007KT 21/19 A3002 RMK A01 T02070186  RH  088%=      5-min Rain = 0
KPD1 061117Z 16008KT 21/19 A3002 RMK A01 T02070186  RH  088%=      5-min Rain = 0
KPD1 061118Z 16009KT 21/19 A3002 RMK A01 T02070186  RH  088%=      5-min Rain = 0
KPD1 061119Z 16007KT 21/19 A3002 RMK A01 T02060185  RH  088%=      5-min Rain = 0
KPD1 061120Z 16007KT 21/19 A3002 RMK A01 T02060185  RH  088%=      5-min Rain = 0
KPD1 061121Z 16009KT 21/19 A3002 RMK A01 T02060185  RH  088%=      5-min Rain = 0
KPD1 061122Z 16009KT 21/19 A3002 RMK A01 T02060185  RH  088%=      5-min Rain = 0
KPD1 061123Z 17007KT 21/19 A3002 RMK A01 T02060185  RH  088%=      5-min Rain = 0
KPD1 061124Z 17007KT 21/19 A3002 RMK A01 T02060185  RH  087%=      5-min Rain = 0
KPD1 061125Z 15007KT 21/19 A3002 RMK A01 T02060185  RH  087%=      5-min Rain = 0
KPD1 061126Z 16007KT 21/19 A3002 RMK A01 T02060185  RH  087%=      5-min Rain = 0
KPD1 061127Z 16007KT 21/19 A3002 RMK A01 T02060185  RH  088%=      5-min Rain = 0
KPD1 061128Z 16008KT 21/19 A3002 RMK A01 T02060185  RH  088%=      5-min Rain = 0
KPD1 061129Z 16006KT 21/19 A3002 RMK A01 T02060185  RH  088%=      5-min Rain = 0
KPD1 061130Z 16008KT 21/19 A3002 RMK A01 T02070185  RH  088%=      5-min Rain = 0
KPD1 061131Z 15008KT 21/19 A3002 RMK A01 T02070185  RH  087%=      5-min Rain = 0
KPD1 061132Z 16007KT 21/19 A3002 RMK A01 T02070185  RH  087%=      5-min Rain = 0
KPD1 061133Z 15008KT 21/19 A3002 RMK A01 T02070185  RH  087%=      5-min Rain = 0
KPD1 061134Z 16006KT 21/19 A3002 RMK A01 T02070185  RH  087%=      5-min Rain = 0
KPD1 061135Z 15007KT 21/18 A3002 RMK A01 T02070184  RH  087%=      5-min Rain = 0
KPD1 061136Z 16009KT 21/19 A3002 RMK A01 T02070185  RH  087%=      5-min Rain = 0
KPD1 061137Z 15009KT 21/19 A3002 RMK A01 T02070185  RH  087%=      5-min Rain = 0
KPD1 061138Z 16008KT 21/19 A3002 RMK A01 T02070185  RH  087%=      5-min Rain = 0
KPD1 061139Z 16007KT 21/19 A3002 RMK A01 T02070185  RH  087%=      5-min Rain = 0
KPD1 061140Z 16008KT 21/19 A3002 RMK A01 T02070185  RH  087%=      5-min Rain = 0
KPD1 061141Z 16007KT 21/19 A3002 RMK A01 T02070186  RH  088%=      5-min Rain = 0
KPD1 061142Z 17006KT 21/19 A3002 RMK A01 T02070185  RH  088%=      5-min Rain = 0
KPD1 061143Z 16006KT 21/19 A3002 RMK A01 T02070185  RH  088%=      5-min Rain = 0
KPD1 061144Z 16006KT 21/19 A3002 RMK A01 T02070185  RH  088%=      5-min Rain = 0
KPD1 061145Z 16006KT 21/19 A3002 RMK A01 T02060185  RH  088%=      5-min Rain = 0
KPD1 061146Z 15008KT 21/19 A3002 RMK A01 T02060186  RH  088%=      5-min Rain = 0
KPD1 061147Z 16007KT 21/19 A3002 RMK A01 T02060186  RH  088%=      5-min Rain = 0
KPD1 061148Z 16006KT 21/19 A3002 RMK A01 T02060186  RH  088%=      5-min Rain = 0
KPD1 061149Z 16007KT 21/19 A3002 RMK A01 T02060186  RH  088%=      5-min Rain = 0
KPD1 061150Z 16008KT 21/19 A3002 RMK A01 T02060186  RH  088%=      5-min Rain = 0
KPD1 061151Z 15008KT 21/19 A3002 RMK A01 T02070186  RH  088%=      5-min Rain = 0
KPD1 061152Z 15008KT 21/19 A3002 RMK A01 T02060186  RH  088%=      5-min Rain = 0
KPD1 061153Z 16008KT 21/19 A3002 RMK A01 T02060186  RH  088%=      5-min Rain = 0
KPD1 061154Z 16007KT 21/19 A3002 RMK A01 T02060186  RH  088%=      5-min Rain = 0
KPD1 061155Z 17006KT 21/19 A3002 RMK A01 T02060185  RH  088%=      5-min Rain = 0
KPD1 061156Z 16007KT 21/19 A3002 RMK A01 T02060185  RH  088%=      5-min Rain = 0
KPD1 061157Z 16008KT 21/19 A3002 RMK A01 T02060185  RH  088%=      5-min Rain = 0
KPD1 061158Z 15007KT 21/19 A3002 RMK A01 T02060186  RH  088%=      5-min Rain = 0
KPD1 061159Z 16007KT 21/19 A3002 RMK A01 T02060186  RH  088%=      5-min Rain = 0
KPD1 061200Z 16007KT 21/19 A3002 RMK A01 T02060186  RH  088%=      5-min Rain = 0
KPD1 061201Z 17007KT 21/19 A3002 RMK A01 T02060186  RH  088%=      5-min Rain = 0
KPD1 061202Z 17008KT 21/19 A3002 RMK A01 T02060186  RH  088%=      5-min Rain = 0
KPD1 061203Z 17008KT 21/19 A3002 RMK A01 T02060186  RH  088%=      5-min Rain = 0
KPD1 061204Z 16008KT 21/19 A3002 RMK A01 T02060185  RH  088%=      5-min Rain = 0
KPD1 061205Z 15008KT 21/19 A3002 RMK A01 T02060185  RH  088%=      5-min Rain = 0
KPD1 061206Z 16009KT 21/19 A3002 RMK A01 T02060185  RH  088%=      5-min Rain = 0
KPD1 061207Z 17008KT 21/19 A3002 RMK A01 T02060185  RH  088%=      5-min Rain = 0
KPD1 061208Z 16009KT 21/19 A3002 RMK A01 T02060185  RH  088%=      5-min Rain = 0
KPD1 061209Z 17010KT 21/19 A3002 RMK A01 T02060185  RH  088%=      5-min Rain = 0
KPD1 061210Z 17009KT 21/19 A3002 RMK A01 T02060185  RH  088%=      5-min Rain = 0
KPD1 061211Z 17009KT 21/19 A3002 RMK A01 T02070185  RH  088%=      5-min Rain = 0
KPD1 061212Z 16007G12KT 21/18 A3002 RMK A01 T02070182  RH  085%=      5-min Rain = 0
KPD1 061213Z 15006KT 21/18 A3002 RMK A01 T02080183  RH  085%=      5-min Rain = 0
KPD1 061214Z 15008KT 21/19 A3002 RMK A01 T02090185  RH  086%=      5-min Rain = 0
KPD1 061215Z 16005KT 21/19 A3002 RMK A01 T02080185  RH  086%=      5-min Rain = 0
KPD1 061216Z 17007KT 21/19 A3002 RMK A01 T02080185  RH  087%=      5-min Rain = 0
KPD1 061217Z 17008KT 21/19 A3002 RMK A01 T02080185  RH  087%=      5-min Rain = 0
KPD1 061218Z 16008KT 21/19 A3002 RMK A01 T02080185  RH  087%=      5-min Rain = 0
KPD1 061219Z 17008KT 21/19 A3002 RMK A01 T02080185  RH  086%=      5-min Rain = 0
KPD1 061220Z 16008KT 21/18 A3002 RMK A01 T02080184  RH  086%=      5-min Rain = 0
KPD1 061221Z 17006KT 21/18 A3002 RMK A01 T02080183  RH  086%=      5-min Rain = 0
KPD1 061222Z 17007KT 21/18 A3002 RMK A01 T02080183  RH  085%=      5-min Rain = 0
KPD1 061223Z 16007KT 21/18 A3002 RMK A01 T02090183  RH  085%=      5-min Rain = 0
KPD1 061224Z 17008KT 21/18 A3002 RMK A01 T02090184  RH  086%=      5-min Rain = 0
KPD1 061225Z 16008KT 21/19 A3002 RMK A01 T02090185  RH  086%=      5-min Rain = 0
KPD1 061226Z 16008KT 21/19 A3002 RMK A01 T02090185  RH  086%=      5-min Rain = 0
KPD1 061227Z 16008KT 21/18 A3002 RMK A01 T02090184  RH  086%=      5-min Rain = 0
KPD1 061228Z 17010KT 21/18 A3002 RMK A01 T02090184  RH  086%=      5-min Rain = 0
KPD1 061229Z 17008KT 21/18 A3002 RMK A01 T02090184  RH  085%=      5-min Rain = 0
KPD1 061230Z 15008KT 21/18 A3002 RMK A01 T02090183  RH  085%=      5-min Rain = 0
KPD1 061231Z 17007KT 21/18 A3002 RMK A01 T02090183  RH  085%=      5-min Rain = 0
KPD1 061232Z 17009KT 21/18 A3002 RMK A01 T02100183  RH  085%=      5-min Rain = 0
KPD1 061233Z 17007KT 21/18 A3002 RMK A01 T02100183  RH  085%=      5-min Rain = 0
KPD1 061234Z 17006KT 21/18 A3002 RMK A01 T02100183  RH  085%=      5-min Rain = 0
KPD1 061235Z 17008KT 21/18 A3002 RMK A01 T02100181  RH  084%=      5-min Rain = 0
KPD1 061236Z 15007KT 21/18 A3002 RMK A01 T02110180  RH  083%=      5-min Rain = 0
KPD1 061237Z 17009KT 21/18 A3002 RMK A01 T02110181  RH  083%=      5-min Rain = 0
KPD1 061238Z 16007KT 21/18 A3002 RMK A01 T02110182  RH  083%=      5-min Rain = 0
KPD1 061239Z 15008KT 21/18 A3002 RMK A01 T02110182  RH  084%=      5-min Rain = 0
KPD1 061240Z 16008KT 21/18 A3002 RMK A01 T02110183  RH  084%=      5-min Rain = 0
KPD1 061241Z 16007KT 21/18 A3002 RMK A01 T02110183  RH  084%=      5-min Rain = 0
KPD1 061242Z 17006KT 21/18 A3002 RMK A01 T02110183  RH  084%=      5-min Rain = 0
KPD1 061243Z 16008KT 21/18 A3002 RMK A01 T02110183  RH  084%=      5-min Rain = 0
KPD1 061244Z 16007KT 21/18 A3002 RMK A01 T02120183  RH  084%=      5-min Rain = 0
KPD1 061245Z 17008KT 21/18 A3002 RMK A01 T02110182  RH  084%=      5-min Rain = 0
KPD1 061246Z 16007KT 21/18 A3002 RMK A01 T02110182  RH  083%=      5-min Rain = 0
KPD1 061247Z 16008KT 21/18 A3002 RMK A01 T02110182  RH  083%=      5-min Rain = 0
KPD1 061248Z 17008KT 21/18 A3002 RMK A01 T02120182  RH  083%=      5-min Rain = 0
KPD1 061249Z 16008KT 21/18 A3002 RMK A01 T02120182  RH  083%=      5-min Rain = 0
KPD1 061250Z 17007KT 21/18 A3002 RMK A01 T02120182  RH  083%=      5-min Rain = 0
KPD1 061251Z 17007KT 21/18 A3002 RMK A01 T02130182  RH  083%=      5-min Rain = 0
KPD1 061252Z 16007KT 21/18 A3002 RMK A01 T02130182  RH  082%=      5-min Rain = 0
KPD1 061253Z 17007KT 21/18 A3002 RMK A01 T02130182  RH  082%=      5-min Rain = 0
KPD1 061254Z 17008KT 21/18 A3002 RMK A01 T02140182  RH  082%=      5-min Rain = 0
KPD1 061255Z 17006KT 21/18 A3002 RMK A01 T02140182  RH  082%=      5-min Rain = 0
KPD1 061256Z 17007KT 21/18 A3002 RMK A01 T02140182  RH  082%=      5-min Rain = 0
KPD1 061257Z 17007KT 21/18 A3002 RMK A01 T02140182  RH  082%=      5-min Rain = 0
KPD1 061258Z 17008KT 21/18 A3002 RMK A01 T02140181  RH  081%=      5-min Rain = 0
KPD1 061259Z 17008KT 22/18 A3002 RMK A01 T02150180  RH  081%=      5-min Rain = 0
KPD1 061300Z 16007KT 22/18 A3002 RMK A01 T02150180  RH  081%=      5-min Rain = 0
KPD1 061301Z 17007KT 22/18 A3002 RMK A01 T02150181  RH  081%=      5-min Rain = 0
KPD1 061302Z 17008KT 22/18 A3002 RMK A01 T02150181  RH  081%=      5-min Rain = 0
KPD1 061303Z 17007KT 22/18 A3002 RMK A01 T02160181  RH  080%=      5-min Rain = 0
KPD1 061304Z 17006KT 22/18 A3002 RMK A01 T02160180  RH  080%=      5-min Rain = 0
KPD1 061305Z 17005KT 22/18 A3002 RMK A01 T02160180  RH  080%=      5-min Rain = 0
KPD1 061306Z 17006KT 22/18 A3002 RMK A01 T02160181  RH  080%=      5-min Rain = 0
KPD1 061307Z 17008KT 22/18 A3002 RMK A01 T02170180  RH  080%=      5-min Rain = 0
KPD1 061308Z 16006KT 22/18 A3002 RMK A01 T02170180  RH  079%=      5-min Rain = 0
KPD1 061309Z 16006KT 22/18 A3002 RMK A01 T02170180  RH  079%=      5-min Rain = 0
KPD1 061310Z 17008KT 22/18 A3002 RMK A01 T02180180  RH  079%=      5-min Rain = 0
KPD1 061311Z 18006KT 22/18 A3002 RMK A01 T02180179  RH  078%=      5-min Rain = 0
KPD1 061312Z 17007KT 22/18 A3002 RMK A01 T02190179  RH  078%=      5-min Rain = 0
KPD1 061313Z 17006KT 22/18 A3002 RMK A01 T02200180  RH  078%=      5-min Rain = 0
KPD1 061314Z 17007KT 22/18 A3002 RMK A01 T02200179  RH  078%=      5-min Rain = 0
KPD1 061315Z 18008KT 22/18 A3002 RMK A01 T02200177  RH  077%=      5-min Rain = 0
KPD1 061316Z 17006KT 22/18 A3002 RMK A01 T02200178  RH  077%=      5-min Rain = 0
KPD1 061317Z 18006KT 22/18 A3002 RMK A01 T02200177  RH  077%=      5-min Rain = 0
KPD1 061318Z 17005KT 22/18 A3002 RMK A01 T02200178  RH  077%=      5-min Rain = 0
KPD1 061319Z 17006KT 22/18 A3002 RMK A01 T02210178  RH  077%=      5-min Rain = 0
KPD1 061320Z 18007KT 22/18 A3002 RMK A01 T02210177  RH  076%=      5-min Rain = 0
KPD1 061321Z 18005KT 22/18 A3002 RMK A01 T02210177  RH  076%=      5-min Rain = 0
KPD1 061322Z 17004KT 22/18 A3002 RMK A01 T02210177  RH  076%=      5-min Rain = 0
KPD1 061323Z 17005KT 22/18 A3002 RMK A01 T02220177  RH  076%=      5-min Rain = 0
KPD1 061324Z 18005KT 22/18 A3003 RMK A01 T02220177  RH  076%=      5-min Rain = 0
KPD1 061325Z 17004KT 22/18 A3003 RMK A01 T02220176  RH  075%=      5-min Rain = 0
KPD1 061326Z 17005KT 22/18 A3003 RMK A01 T02230176  RH  074%=      5-min Rain = 0
KPD1 061327Z 17003KT 22/18 A3003 RMK A01 T02230176  RH  075%=      5-min Rain = 0
KPD1 061328Z 17004KT 22/18 A3003 RMK A01 T02230176  RH  075%=      5-min Rain = 0
KPD1 061329Z 18004KT 22/18 A3002 RMK A01 T02230175  RH  074%=      5-min Rain = 0
KPD1 061330Z 18005KT 22/18 A3002 RMK A01 T02240175  RH  074%=      5-min Rain = 0
KPD1 061331Z 18004KT 22/18 A3002 RMK A01 T02240176  RH  074%=      5-min Rain = 0
KPD1 061332Z 18005KT 23/18 A3002 RMK A01 T02250176  RH  074%=      5-min Rain = 0
KPD1 061333Z 19004KT 23/18 A3002 RMK A01 T02250176  RH  074%=      5-min Rain = 0
KPD1 061334Z 17005KT 23/18 A3002 RMK A01 T02250175  RH  073%=      5-min Rain = 0
KPD1 061335Z 17005KT 23/17 A3002 RMK A01 T02260174  RH  072%=      5-min Rain = 0
KPD1 061336Z 18005KT 23/17 A3002 RMK A01 T02260174  RH  072%=      5-min Rain = 0
KPD1 061337Z 17004KT 23/18 A3002 RMK A01 T02270175  RH  072%=      5-min Rain = 0
KPD1 061338Z 17004KT 23/18 A3003 RMK A01 T02260175  RH  072%=      5-min Rain = 0
KPD1 061339Z 19004KT 23/18 A3003 RMK A01 T02270175  RH  073%=      5-min Rain = 0
KPD1 061340Z 19006KT 23/17 A3003 RMK A01 T02270174  RH  072%=      5-min Rain = 0
KPD1 061341Z 20004KT 23/17 A3003 RMK A01 T02280172  RH  071%=      5-min Rain = 0
KPD1 061342Z 19004KT 23/17 A3003 RMK A01 T02280172  RH  071%=      5-min Rain = 0
KPD1 061343Z 20005KT 23/17 A3003 RMK A01 T02280174  RH  071%=      5-min Rain = 0
KPD1 061344Z 19006KT 23/17 A3003 RMK A01 T02290173  RH  071%=      5-min Rain = 0
KPD1 061345Z 19006KT 23/17 A3003 RMK A01 T02300171  RH  070%=      5-min Rain = 0
KPD1 061346Z 19005KT 23/17 A3003 RMK A01 T02300170  RH  069%=      5-min Rain = 0
KPD1 061347Z 20005KT 23/17 A3003 RMK A01 T02320170  RH  068%=      5-min Rain = 0
KPD1 061348Z 20007KT 23/17 A3003 RMK A01 T02320169  RH  067%=      5-min Rain = 0
KPD1 061349Z 19009KT 23/17 A3003 RMK A01 T02330165  RH  066%=      5-min Rain = 0
KPD1 061350Z 19006KT 23/16 A3003 RMK A01 T02340164  RH  065%=      5-min Rain = 0
KPD1 061351Z 19005KT 24/17 A3003 RMK A01 T02360165  RH  065%=      5-min Rain = 0
KPD1 061352Z 19005KT 24/17 A3003 RMK A01 T02360166  RH  065%=      5-min Rain = 0
KPD1 061353Z 19006KT 24/17 A3003 RMK A01 T02370167  RH  065%=      5-min Rain = 0
KPD1 061354Z 19007KT 24/17 A3003 RMK A01 T02380167  RH  064%=      5-min Rain = 0
KPD1 061355Z 19008KT 24/17 A3003 RMK A01 T02390165  RH  063%=      5-min Rain = 0
KPD1 061356Z 19008KT 24/16 A3003 RMK A01 T02390164  RH  063%=      5-min Rain = 0
KPD1 061357Z 19006KT 24/16 A3003 RMK A01 T02400164  RH  063%=      5-min Rain = 0
KPD1 061358Z 20006KT 24/16 A3003 RMK A01 T02400164  RH  063%=      5-min Rain = 0
KPD1 061359Z 19005KT 24/16 A3003 RMK A01 T02410164  RH  062%=      5-min Rain = 0
KPD1 061400Z 20004KT 24/16 A3003 RMK A01 T02420164  RH  062%=      5-min Rain = 0
KPD1 061401Z 19004KT 24/17 A3003 RMK A01 T02430166  RH  062%=      5-min Rain = 0
KPD1 061402Z 20007KT 24/17 A3003 RMK A01 T02440165  RH  061%=      5-min Rain = 0
KPD1 061403Z 20007KT 25/16 A3003 RMK A01 T02450163  RH  060%=      5-min Rain = 0
KPD1 061404Z 19004KT 25/16 A3003 RMK A01 T02460163  RH  060%=      5-min Rain = 0
KPD1 061405Z 20005KT 25/16 A3003 RMK A01 T02470163  RH  060%=      5-min Rain = 0
KPD1 061406Z 20007KT 25/16 A3003 RMK A01 T02470161  RH  059%=      5-min Rain = 0
KPD1 061407Z 20005KT 25/16 A3003 RMK A01 T02490160  RH  058%=      5-min Rain = 0
KPD1 061408Z 20008KT 25/16 A3003 RMK A01 T02500159  RH  057%=      5-min Rain = 0
KPD1 061409Z 20008KT 25/16 A3003 RMK A01 T02520157  RH  056%=      5-min Rain = 0
KPD1 061410Z 20007KT 25/16 A3003 RMK A01 T02530156  RH  055%=      5-min Rain = 0
KPD1 061411Z 20009KT 25/16 A3003 RMK A01 T02540155  RH  054%=      5-min Rain = 0
KPD1 061412Z 21008KT 26/16 A3003 RMK A01 T02550155  RH  054%=      5-min Rain = 0
KPD1 061413Z 21006KT 26/16 A3003 RMK A01 T02560156  RH  054%=      5-min Rain = 0
KPD1 061414Z 21007KT 26/16 A3003 RMK A01 T02560156  RH  054%=      5-min Rain = 0
KPD1 061415Z 21007KT 26/16 A3003 RMK A01 T02570155  RH  053%=      5-min Rain = 0
KPD1 061416Z 21008G14KT 26/16 A3003 RMK A01 T02580156  RH  053%=      5-min Rain = 0
KPD1 061417Z 21010G16KT 26/15 A3003 RMK A01 T02590153  RH  052%=      5-min Rain = 0
KPD1 061418Z 21008G13KT 26/15 A3003 RMK A01 T02610149  RH  050%=      5-min Rain = 0
KPD1 061419Z 21011G20KT 26/15 A3003 RMK A01 T02630149  RH  049%=      5-min Rain = 0
KPD1 061420Z 21012G17KT 27/15 A3003 RMK A01 T02650148  RH  049%=      5-min Rain = 0
KPD1 061421Z 20012KT 27/15 A3003 RMK A01 T02660148  RH  048%=      5-min Rain = 0
KPD1 061422Z 21013G18KT 27/15 A3003 RMK A01 T02680147  RH  047%=      5-min Rain = 0
KPD1 061423Z 21010KT 27/15 A3003 RMK A01 T02690146  RH  047%=      5-min Rain = 0
KPD1 061424Z 20010KT 27/15 A3003 RMK A01 T02700147  RH  047%=      5-min Rain = 0
KPD1 061425Z 21012KT 27/15 A3003 RMK A01 T02700146  RH  047%=      5-min Rain = 0
KPD1 061426Z 21010KT 27/15 A3003 RMK A01 T02710145  RH  046%=      5-min Rain = 0
KPD1 061427Z 21012G17KT 27/15 A3003 RMK A01 T02710145  RH  046%=      5-min Rain = 0
KPD1 061428Z 19011KT 27/15 A3003 RMK A01 T02710146  RH  046%=      5-min Rain = 0
KPD1 061429Z 20011G17KT 27/14 A3003 RMK A01 T02710144  RH  046%=      5-min Rain = 0
KPD1 061430Z 21010KT 27/15 A3003 RMK A01 T02720145  RH  046%=      5-min Rain = 0
KPD1 061431Z 19011G16KT 27/15 A3003 RMK A01 T02720145  RH  046%=      5-min Rain = 0
KPD1 061432Z 21012KT 27/14 A3003 RMK A01 T02710144  RH  045%=      5-min Rain = 0
KPD1 061433Z 21011KT 27/14 A3003 RMK A01 T02720144  RH  045%=      5-min Rain = 0
KPD1 061434Z 21010KT 27/14 A3003 RMK A01 T02720144  RH  045%=      5-min Rain = 0
KPD1 061435Z 21014G19KT 27/14 A3003 RMK A01 T02720144  RH  046%=      5-min Rain = 0
KPD1 061436Z 22014G20KT 27/14 A3003 RMK A01 T02720143  RH  045%=      5-min Rain = 0
KPD1 061437Z 21013KT 27/14 A3003 RMK A01 T02720143  RH  045%=      5-min Rain = 0
KPD1 061438Z 21011G17KT 27/14 A3003 RMK A01 T02720144  RH  045%=      5-min Rain = 0
KPD1 061439Z 21013KT 27/14 A3003 RMK A01 T02710143  RH  045%=      5-min Rain = 0
KPD1 061440Z 21012KT 27/14 A3003 RMK A01 T02710143  RH  045%=      5-min Rain = 0
KPD1 061441Z 20008KT 27/14 A3003 RMK A01 T02720144  RH  045%=      5-min Rain = 0
KPD1 061442Z 20008KT 28/15 A3003 RMK A01 T02750145  RH  045%=      5-min Rain = 0
KPD1 061443Z 20010G15KT 28/15 A3003 RMK A01 T02770145  RH  044%=      5-min Rain = 0
KPD1 061444Z 19013G18KT 28/15 A3003 RMK A01 T02800145  RH  044%=      5-min Rain = 0
KPD1 061445Z 21013G18KT 28/14 A3003 RMK A01 T02820144  RH  043%=      5-min Rain = 0
KPD1 061446Z 20013G19KT 28/14 A3003 RMK A01 T02820144  RH  043%=      5-min Rain = 0
KPD1 061447Z 21011KT 28/14 A3003 RMK A01 T02830144  RH  043%=      5-min Rain = 0
KPD1 061448Z 21010G15KT 28/15 A3003 RMK A01 T02840145  RH  043%=      5-min Rain = 0
KPD1 061449Z 21010KT 29/15 A3003 RMK A01 T02850145  RH  042%=      5-min Rain = 0
KPD1 061450Z 22007KT 29/15 A3003 RMK A01 T02860146  RH  042%=      5-min Rain = 0
KPD1 061451Z 20007KT 29/15 A3003 RMK A01 T02890149  RH  042%=      5-min Rain = 0
KPD1 061452Z 22009KT 29/15 A3003 RMK A01 T02930149  RH  042%=      5-min Rain = 0
KPD1 061453Z 22014KT 29/15 A3003 RMK A01 T02940147  RH  041%=      5-min Rain = 0
KPD1 061454Z 23011G17KT 29/15 A3003 RMK A01 T02920146  RH  041%=      5-min Rain = 0
KPD1 061455Z 21010G16KT 29/15 A3003 RMK A01 T02910148  RH  042%=      5-min Rain = 0
KPD1 061456Z 21011KT 29/15 A3003 RMK A01 T02910146  RH  041%=      5-min Rain = 0
KPD1 061457Z 21011KT 29/15 A3003 RMK A01 T02920147  RH  041%=      5-min Rain = 0
KPD1 061458Z 22008KT 29/15 A3003 RMK A01 T02920148  RH  041%=      5-min Rain = 0
KPD1 061459Z 21008KT 29/15 A3003 RMK A01 T02930147  RH  041%=      5-min Rain = 0
KPD1 061500Z 21010KT 29/15 A3003 RMK A01 T02930147  RH  041%=      5-min Rain = 0
KPD1 061501Z 20011KT 29/15 A3003 RMK A01 T02930147  RH  041%=      5-min Rain = 0
KPD1 061502Z 21007G12KT 29/15 A3003 RMK A01 T02930147  RH  041%=      5-min Rain = 0
KPD1 061503Z 20005KT 29/15 A3003 RMK A01 T02940149  RH  041%=      5-min Rain = 0
KPD1 061504Z 19006G12KT 29/15 A3003 RMK A01 T02940150  RH  041%=      5-min Rain = 0
KPD1 061505Z 21008KT 30/15 A3003 RMK A01 T02950150  RH  041%=      5-min Rain = 0
KPD1 061506Z 20007G12KT 30/15 A3003 RMK A01 T02960151  RH  041%=      5-min Rain = 0
KPD1 061507Z 19009KT 30/15 A3003 RMK A01 T02970150  RH  041%=      5-min Rain = 0
KPD1 061508Z 19009KT 30/15 A3003 RMK A01 T02970150  RH  041%=      5-min Rain = 0
KPD1 061509Z 20010KT 30/15 A3003 RMK A01 T02970149  RH  041%=      5-min Rain = 0
KPD1 061510Z 20008KT 30/15 A3003 RMK A01 T02960149  RH  041%=      5-min Rain = 0
KPD1 061511Z 20007KT 29/15 A3003 RMK A01 T02940149  RH  041%=      5-min Rain = 0
KPD1 061512Z 20008KT 30/15 A3003 RMK A01 T02960151  RH  041%=      5-min Rain = 0
KPD1 061513Z 22005KT 30/15 A3003 RMK A01 T02970151  RH  041%=      5-min Rain = 0
KPD1 061514Z 23012G17KT 30/15 A3003 RMK A01 T02990149  RH  040%=      5-min Rain = 0
KPD1 061515Z 24007G12KT 30/15 A3003 RMK A01 T03000148  RH  040%=      5-min Rain = 0
KPD1 061516Z 19007KT 30/15 A3003 RMK A01 T03000149  RH  040%=      5-min Rain = 0
KPD1 061517Z 19009KT 30/15 A3003 RMK A01 T03010149  RH  040%=      5-min Rain = 0
KPD1 061518Z 21010KT 30/15 A3003 RMK A01 T03020149  RH  039%=      5-min Rain = 0
KPD1 061519Z 22010KT 30/15 A3003 RMK A01 T03020149  RH  039%=      5-min Rain = 0
KPD1 061520Z 21012KT 30/15 A3003 RMK A01 T03010146  RH  039%=      5-min Rain = 0
KPD1 061521Z 21010KT 30/15 A3003 RMK A01 T03000145  RH  039%=      5-min Rain = 0
KPD1 061522Z 22010KT 30/14 A3003 RMK A01 T02980144  RH  039%=      5-min Rain = 0
KPD1 061523Z 22011KT 30/15 A3003 RMK A01 T02970146  RH  040%=      5-min Rain = 0
KPD1 061524Z 22012KT 30/15 A3003 RMK A01 T02960145  RH  040%=      5-min Rain = 0
KPD1 061525Z 21012KT 30/15 A3003 RMK A01 T02950145  RH  040%=      5-min Rain = 0
KPD1 061526Z 21009KT 29/15 A3003 RMK A01 T02940145  RH  040%=      5-min Rain = 0
KPD1 061527Z 21007KT 29/15 A3003 RMK A01 T02940146  RH  040%=      5-min Rain = 0
KPD1 061528Z 20010G15KT 30/15 A3004 RMK A01 T02950148  RH  041%=      5-min Rain = 0
KPD1 061529Z 22012KT 30/15 A3004 RMK A01 T02970146  RH  040%=      5-min Rain = 0
KPD1 061530Z 21007KT 30/15 A3003 RMK A01 T02990148  RH  040%=      5-min Rain = 0
KPD1 061531Z 22012KT 30/15 A3003 RMK A01 T03020149  RH  039%=      5-min Rain = 0
KPD1 061532Z 20007KT 30/15 A3003 RMK A01 T03030148  RH  039%=      5-min Rain = 0
KPD1 061533Z 21009KT 31/15 A3004 RMK A01 T03050149  RH  039%=      5-min Rain = 0
KPD1 061534Z 21009KT 31/15 A3003 RMK A01 T03060148  RH  038%=      5-min Rain = 0
KPD1 061535Z 21012G17KT 31/15 A3004 RMK A01 T03070149  RH  038%=      5-min Rain = 0
KPD1 061536Z 21011KT 31/15 A3003 RMK A01 T03080148  RH  038%=      5-min Rain = 0
KPD1 061537Z 23013KT 31/15 A3004 RMK A01 T03080148  RH  038%=      5-min Rain = 0
KPD1 061538Z 22012G17KT 31/15 A3004 RMK A01 T03070148  RH  038%=      5-min Rain = 0
KPD1 061539Z 24011KT 31/15 A3003 RMK A01 T03070148  RH  038%=      5-min Rain = 0
KPD1 061540Z 21010KT 31/15 A3003 RMK A01 T03090151  RH  039%=      5-min Rain = 0
KPD1 061541Z 23012G19KT 31/15 A3004 RMK A01 T03140151  RH  037%=      5-min Rain = 0
KPD1 061542Z 23013KT 31/15 A3003 RMK A01 T03130148  RH  037%=      5-min Rain = 0
KPD1 061543Z 22011KT 31/15 A3004 RMK A01 T03080147  RH  037%=      5-min Rain = 0
KPD1 061544Z 22011G16KT 31/15 A3004 RMK A01 T03050147  RH  038%=      5-min Rain = 0
KPD1 061545Z 23011KT 30/15 A3004 RMK A01 T03020145  RH  038%=      5-min Rain = 0
KPD1 061546Z 22008KT 30/15 A3004 RMK A01 T02990145  RH  039%=      5-min Rain = 0
KPD1 061547Z 22009KT 30/15 A3004 RMK A01 T02980147  RH  040%=      5-min Rain = 0
KPD1 061548Z 21012G17KT 30/15 A3004 RMK A01 T02990147  RH  040%=      5-min Rain = 0
KPD1 061549Z 21012KT 30/15 A3004 RMK A01 T03000147  RH  039%=      5-min Rain = 0
KPD1 061550Z 22011G16KT 30/15 A3003 RMK A01 T03010146  RH  039%=      5-min Rain = 0
KPD1 061551Z 22013KT 30/15 A3003 RMK A01 T03020147  RH  039%=      5-min Rain = 0
KPD1 061552Z 21009KT 30/15 A3003 RMK A01 T03040148  RH  039%=      5-min Rain = 0
KPD1 061553Z 20008KT 31/15 A3003 RMK A01 T03070149  RH  038%=      5-min Rain = 0
KPD1 061554Z 22008KT 31/15 A3003 RMK A01 T03110151  RH  038%=      5-min Rain = 0
KPD1 061555Z 22011KT 32/15 A3003 RMK A01 T03150150  RH  037%=      5-min Rain = 0
KPD1 061556Z 22009G14KT 32/15 A3003 RMK A01 T03160148  RH  036%=      5-min Rain = 0
KPD1 061557Z 22013KT 32/15 A3003 RMK A01 T03160147  RH  036%=      5-min Rain = 0
KPD1 061558Z 21012G17KT 31/15 A3003 RMK A01 T03140145  RH  036%=      5-min Rain = 0
KPD1 061559Z 20013G19KT 31/15 A3003 RMK A01 T03120145  RH  036%=      5-min Rain = 0
KPD1 061600Z 20014KT 31/15 A3003 RMK A01 T03130147  RH  037%=      5-min Rain = 0
KPD1 061601Z 20015KT 31/15 A3003 RMK A01 T03140147  RH  036%=      5-min Rain = 0
KPD1 061602Z 20013KT 31/15 A3003 RMK A01 T03140147  RH  036%=      5-min Rain = 0
KPD1 061603Z 21011KT 31/15 A3003 RMK A01 T03140147  RH  036%=      5-min Rain = 0
KPD1 061604Z 23013KT 32/15 A3003 RMK A01 T03150147  RH  036%=      5-min Rain = 0
KPD1 061605Z 21012KT 32/15 A3003 RMK A01 T03150147  RH  036%=      5-min Rain = 0
KPD1 061606Z 20012G17KT 32/15 A3003 RMK A01 T03150147  RH  036%=      5-min Rain = 0
KPD1 061607Z 20012KT 32/15 A3003 RMK A01 T03160147  RH  036%=      5-min Rain = 0
KPD1 061608Z 21012KT 32/15 A3003 RMK A01 T03160148  RH  036%=      5-min Rain = 0
KPD1 061609Z 21010KT 32/15 A3003 RMK A01 T03160148  RH  036%=      5-min Rain = 0
KPD1 061610Z 21014G19KT 32/15 A3003 RMK A01 T03180149  RH  036%=      5-min Rain = 0
KPD1 061611Z 21014KT 32/15 A3003 RMK A01 T03180148  RH  036%=      5-min Rain = 0
KPD1 061612Z 22012KT 32/15 A3003 RMK A01 T03170149  RH  036%=      5-min Rain = 0
KPD1 061613Z 23012KT 32/15 A3003 RMK A01 T03170149  RH  036%=      5-min Rain = 0
KPD1 061614Z 22008G13KT 32/15 A3003 RMK A01 T03160148  RH  036%=      5-min Rain = 0
KPD1 061615Z 23007G15KT 32/15 A3003 RMK A01 T03150149  RH  037%=      5-min Rain = 0
KPD1 061616Z 20010G15KT 32/15 A3003 RMK A01 T03160151  RH  037%=      5-min Rain = 0
KPD1 061617Z 21009KT 32/15 A3003 RMK A01 T03190151  RH  036%=      5-min Rain = 0
KPD1 061618Z 24008KT 32/15 A3003 RMK A01 T03200152  RH  036%=      5-min Rain = 0
KPD1 061619Z 21006KT 32/15 A3003 RMK A01 T03230151  RH  036%=      5-min Rain = 0
KPD1 061620Z 23006KT 32/15 A3003 RMK A01 T03240152  RH  035%=      5-min Rain = 0
KPD1 061621Z 23006KT 33/15 A3003 RMK A01 T03270154  RH  035%=      5-min Rain = 0
KPD1 061622Z 19007G12KT 33/15 A3003 RMK A01 T03320154  RH  034%=      5-min Rain = 0
KPD1 061623Z 20010G15KT 33/15 A3003 RMK A01 T03340150  RH  033%=      5-min Rain = 0
KPD1 061624Z 21007G12KT 33/15 A3003 RMK A01 T03320147  RH  033%=      5-min Rain = 0
KPD1 061625Z 22013G19KT 33/15 A3003 RMK A01 T03300146  RH  033%=      5-min Rain = 0
KPD1 061626Z 22012KT 33/15 A3003 RMK A01 T03300145  RH  033%=      5-min Rain = 0
KPD1 061627Z 20009G14KT 33/15 A3003 RMK A01 T03320147  RH  033%=      5-min Rain = 0
KPD1 061628Z 20011KT 34/15 A3003 RMK A01 T03360147  RH  032%=      5-min Rain = 0
KPD1 061629Z 21008KT 34/15 A3003 RMK A01 T03370145  RH  032%=      5-min Rain = 0
KPD1 061630Z 21005G13KT 34/15 A3003 RMK A01 T03350146  RH  032%=      5-min Rain = 0
KPD1 061631Z 21008KT 34/15 A3003 RMK A01 T03370148  RH  032%=      5-min Rain = 0
KPD1 061632Z 21007KT 34/15 A3003 RMK A01 T03390147  RH  032%=      5-min Rain = 0
KPD1 061633Z 21012KT 34/15 A3003 RMK A01 T03400146  RH  031%=      5-min Rain = 0
KPD1 061634Z 21009G14KT 34/15 A3003 RMK A01 T03400145  RH  031%=      5-min Rain = 0
KPD1 061635Z 22015KT 34/14 A3003 RMK A01 T03400143  RH  031%=      5-min Rain = 0
KPD1 061636Z 21010KT 34/14 A3003 RMK A01 T03390143  RH  031%=      5-min Rain = 0
KPD1 061637Z 21009KT 34/14 A3003 RMK A01 T03390142  RH  031%=      5-min Rain = 0
KPD1 061638Z 20011KT 34/14 A3003 RMK A01 T03400142  RH  030%=      5-min Rain = 0
KPD1 061639Z 21010G16KT 34/14 A3003 RMK A01 T03420143  RH  030%=      5-min Rain = 0
KPD1 061640Z 20012KT 34/14 A3003 RMK A01 T03440143  RH  030%=      5-min Rain = 0
KPD1 061641Z 21010KT 34/14 A3003 RMK A01 T03420144  RH  030%=      5-min Rain = 0
KPD1 061642Z 22010KT 34/15 A3003 RMK A01 T03420145  RH  031%=      5-min Rain = 0
KPD1 061643Z 23012KT 35/14 A3003 RMK A01 T03450143  RH  030%=      5-min Rain = 0
KPD1 061644Z 21010KT 34/14 A3003 RMK A01 T03440143  RH  030%=      5-min Rain = 0
KPD1 061645Z 20009KT 35/15 A3003 RMK A01 T03470146  RH  030%=      5-min Rain = 0
KPD1 061646Z 21008KT 35/14 A3003 RMK A01 T03480144  RH  029%=      5-min Rain = 0
KPD1 061647Z 22009KT 35/14 A3003 RMK A01 T03500143  RH  029%=      5-min Rain = 0
KPD1 061648Z 21005KT 35/14 A3003 RMK A01 T03510141  RH  028%=      5-min Rain = 0
KPD1 061649Z 25009KT 35/14 A3003 RMK A01 T03510141  RH  028%=      5-min Rain = 0
KPD1 061650Z 21009KT 35/14 A3003 RMK A01 T03540142  RH  028%=      5-min Rain = 0
KPD1 061651Z 22005KT 36/14 A3003 RMK A01 T03570140  RH  027%=      5-min Rain = 0
KPD1 061652Z 22011G17KT 36/14 A3003 RMK A01 T03600143  RH  027%=      5-min Rain = 0
KPD1 061653Z 21010KT 36/14 A3003 RMK A01 T03620142  RH  027%=      5-min Rain = 0
KPD1 061654Z 21007KT 36/14 A3003 RMK A01 T03620144  RH  027%=      5-min Rain = 0
KPD1 061655Z 20013G20KT 36/14 A3002 RMK A01 T03640143  RH  027%=      5-min Rain = 0
KPD1 061656Z 22012KT 36/14 A3002 RMK A01 T03640139  RH  026%=      5-min Rain = 0
KPD1 061657Z 21011KT 36/14 A3003 RMK A01 T03630140  RH  026%=      5-min Rain = 0
KPD1 061658Z 22010G15KT 36/14 A3003 RMK A01 T03630141  RH  027%=      5-min Rain = 0
KPD1 061659Z 23010KT 37/14 A3003 RMK A01 T03660136  RH  025%=      5-min Rain = 0
KPD1 061700Z 24009KT 36/13 A3003 RMK A01 T03640129  RH  024%=      5-min Rain = 0
KPD1 061701Z 23009KT 36/13 A3003 RMK A01 T03600132  RH  025%=      5-min Rain = 0
KPD1 061702Z 22013KT 36/14 A3003 RMK A01 T03610136  RH  026%=      5-min Rain = 0
KPD1 061703Z 23010KT 36/14 A3003 RMK A01 T03620138  RH  026%=      5-min Rain = 0
KPD1 061704Z 22009KT 36/14 A3003 RMK A01 T03600138  RH  026%=      5-min Rain = 0
KPD1 061705Z 22012G17KT 36/14 A3003 RMK A01 T03580137  RH  027%=      5-min Rain = 0
KPD1 061706Z 20013KT 36/14 A3003 RMK A01 T03600137  RH  026%=      5-min Rain = 0
KPD1 061707Z 22012KT 36/14 A3002 RMK A01 T03630136  RH  026%=      5-min Rain = 0
KPD1 061708Z 21013G19KT 36/14 A3003 RMK A01 T03620135  RH  026%=      5-min Rain = 0
KPD1 061709Z 22012KT 36/13 A3003 RMK A01 T03600131  RH  025%=      5-min Rain = 0
KPD1 061710Z 21011G16KT 36/13 A3002 RMK A01 T03600130  RH  025%=      5-min Rain = 0
KPD1 061711Z 22008G14KT 36/13 A3003 RMK A01 T03610133  RH  026%=      5-min Rain = 0
KPD1 061712Z 23012KT 37/14 A3002 RMK A01 T03650135  RH  025%=      5-min Rain = 0
KPD1 061713Z 22013G18KT 36/13 A3002 RMK A01 T03640134  RH  025%=      5-min Rain = 0
KPD1 061714Z 20012KT 36/13 A3002 RMK A01 T03630133  RH  025%=      5-min Rain = 0
KPD1 061715Z 21015KT 37/13 A3002 RMK A01 T03650132  RH  025%=      5-min Rain = 0
KPD1 061716Z 22010G15KT 36/13 A3002 RMK A01 T03640130  RH  025%=      5-min Rain = 0
KPD1 061717Z 22014KT 36/13 A3002 RMK A01 T03630130  RH  025%=      5-min Rain = 0
KPD1 061718Z 22015KT 36/13 A3002 RMK A01 T03640130  RH  025%=      5-min Rain = 0
KPD1 061719Z 21011G16KT 36/13 A3002 RMK A01 T03640129  RH  024%=      5-min Rain = 0
KPD1 061720Z 21010KT 36/13 A3002 RMK A01 T03640128  RH  024%=      5-min Rain = 0
KPD1 061721Z 20010KT 37/13 A3002 RMK A01 T03660129  RH  024%=      5-min Rain = 0
KPD1 061722Z 21010KT 37/13 A3002 RMK A01 T03660127  RH  024%=      5-min Rain = 0
KPD1 061723Z 21010G17KT 36/13 A3002 RMK A01 T03640130  RH  025%=      5-min Rain = 0
KPD1 061724Z 23015KT 37/13 A3002 RMK A01 T03650134  RH  025%=      5-min Rain = 0
KPD1 061725Z 23014G20KT 37/14 A3002 RMK A01 T03680136  RH  025%=      5-min Rain = 0
KPD1 061726Z 21013KT 37/14 A3002 RMK A01 T03700136  RH  025%=      5-min Rain = 0
KPD1 061727Z 20012G17KT 37/13 A3002 RMK A01 T03680134  RH  025%=      5-min Rain = 0
KPD1 061728Z 21014KT 37/13 A3002 RMK A01 T03650134  RH  025%=      5-min Rain = 0
KPD1 061729Z 20013KT 37/13 A3002 RMK A01 T03660133  RH  025%=      5-min Rain = 0
KPD1 061730Z 21012G17KT 37/13 A3002 RMK A01 T03660131  RH  024%=      5-min Rain = 0
KPD1 061731Z 21011KT 36/13 A3002 RMK A01 T03640130  RH  025%=      5-min Rain = 0
KPD1 061732Z 21016G22KT 36/13 A3002 RMK A01 T03590129  RH  025%=      5-min Rain = 0
KPD1 061733Z 21016KT 35/13 A3002 RMK A01 T03540128  RH  026%=      5-min Rain = 0
KPD1 061734Z 21014KT 35/13 A3002 RMK A01 T03500129  RH  026%=      5-min Rain = 0
KPD1 061735Z 21013KT 35/13 A3002 RMK A01 T03480131  RH  027%=      5-min Rain = 0
KPD1 061736Z 23015KT 35/13 A3002 RMK A01 T03470132  RH  027%=      5-min Rain = 0
KPD1 061737Z 22015G20KT 35/13 A3002 RMK A01 T03450132  RH  028%=      5-min Rain = 0
KPD1 061738Z 22012KT 34/13 A3002 RMK A01 T03420134  RH  028%=      5-min Rain = 0
KPD1 061739Z 22015KT 34/14 A3002 RMK A01 T03400135  RH  029%=      5-min Rain = 0
KPD1 061740Z 22009KT 34/14 A3002 RMK A01 T03380138  RH  030%=      5-min Rain = 0
KPD1 061741Z 21012G18KT 34/14 A3002 RMK A01 T03380140  RH  030%=      5-min Rain = 0
KPD1 061742Z 21013KT 34/14 A3002 RMK A01 T03380141  RH  030%=      5-min Rain = 0
KPD1 061743Z 20014KT 34/14 A3002 RMK A01 T03370141  RH  031%=      5-min Rain = 0
KPD1 061744Z 19015KT 34/14 A3002 RMK A01 T03370142  RH  031%=      5-min Rain = 0
KPD1 061745Z 19014KT 34/14 A3002 RMK A01 T03370142  RH  031%=      5-min Rain = 0
KPD1 061746Z 21013G18KT 34/14 A3003 RMK A01 T03370141  RH  031%=      5-min Rain = 0
KPD1 061747Z 22011KT 34/14 A3003 RMK A01 T03360140  RH  031%=      5-min Rain = 0
KPD1 061748Z 21011KT 34/14 A3003 RMK A01 T03360142  RH  031%=      5-min Rain = 0
KPD1 061749Z 20012KT 34/14 A3003 RMK A01 T03360144  RH  031%=      5-min Rain = 0
KPD1 061750Z 19011G18KT 34/15 A3003 RMK A01 T03360146  RH  032%=      5-min Rain = 0
KPD1 061751Z 19011KT 34/15 A3003 RMK A01 T03360145  RH  032%=      5-min Rain = 0
KPD1 061752Z 19011G16KT 34/15 A3003 RMK A01 T03350145  RH  032%=      5-min Rain = 0
KPD1 061753Z 20010G15KT 33/15 A3003 RMK A01 T03330146  RH  032%=      5-min Rain = 0
KPD1 061754Z 20012KT 33/15 A3003 RMK A01 T03330147  RH  033%=      5-min Rain = 0
KPD1 061755Z 20011G17KT 33/15 A3003 RMK A01 T03320148  RH  033%=      5-min Rain = 0
KPD1 061756Z 20013G22KT 33/15 A3003 RMK A01 T03320148  RH  033%=      5-min Rain = 0
KPD1 061757Z 20013G19KT 33/15 A3003 RMK A01 T03320146  RH  033%=      5-min Rain = 0
KPD1 061758Z 21014KT 33/15 A3003 RMK A01 T03310146  RH  033%=      5-min Rain = 0
KPD1 061759Z 21015G22KT 33/15 A3002 RMK A01 T03310147  RH  033%=      5-min Rain = 0
KPD1 061800Z 22013KT 33/15 A3003 RMK A01 T03300148  RH  033%=      5-min Rain = 0
KPD1 061801Z 21013G18KT 33/15 A3002 RMK A01 T03300148  RH  034%=      5-min Rain = 0
KPD1 061802Z 20011KT 33/15 A3002 RMK A01 T03290149  RH  034%=      5-min Rain = 0
KPD1 061803Z 19011KT 33/15 A3002 RMK A01 T03300149  RH  033%=      5-min Rain = 0
KPD1 061804Z 19011G16KT 33/15 A3003 RMK A01 T03320149  RH  033%=      5-min Rain = 0
KPD1 061805Z 21010G15KT 33/15 A3003 RMK A01 T03330147  RH  033%=      5-min Rain = 0
KPD1 061806Z 22013G18KT 33/15 A3003 RMK A01 T03330146  RH  032%=      5-min Rain = 0
KPD1 061807Z 21012KT 33/15 A3003 RMK A01 T03330146  RH  032%=      5-min Rain = 0
KPD1 061808Z 20011KT 33/15 A3002 RMK A01 T03330145  RH  032%=      5-min Rain = 0
KPD1 061809Z 20011KT 33/15 A3002 RMK A01 T03330145  RH  032%=      5-min Rain = 0
KPD1 061810Z 20012KT 33/15 A3002 RMK A01 T03340146  RH  032%=      5-min Rain = 0
KPD1 061811Z 21011KT 34/15 A3002 RMK A01 T03350147  RH  032%=      5-min Rain = 0
KPD1 061812Z 23012KT 34/15 A3002 RMK A01 T03360148  RH  032%=      5-min Rain = 0
KPD1 061813Z 22009KT 34/15 A3002 RMK A01 T03360149  RH  033%=      5-min Rain = 0
KPD1 061814Z 23011G17KT 34/15 A3002 RMK A01 T03360149  RH  032%=      5-min Rain = 0
KPD1 061815Z 23012KT 34/14 A3002 RMK A01 T03370144  RH  031%=      5-min Rain = 0
KPD1 061816Z 20010G16KT 34/14 A3002 RMK A01 T03360144  RH  031%=      5-min Rain = 0
KPD1 061817Z 20009G14KT 34/15 A3002 RMK A01 T03370149  RH  032%=      5-min Rain = 0
KPD1 061818Z 22010KT 34/14 A3002 RMK A01 T03390143  RH  031%=      5-min Rain = 0
KPD1 061819Z 21012KT 34/14 A3002 RMK A01 T03390139  RH  030%=      5-min Rain = 0
KPD1 061820Z 22012KT 34/14 A3002 RMK A01 T03390137  RH  030%=      5-min Rain = 0
KPD1 061821Z 20012G17KT 34/14 A3002 RMK A01 T03390139  RH  030%=      5-min Rain = 0
KPD1 061822Z 23014G19KT 34/14 A3002 RMK A01 T03390141  RH  030%=      5-min Rain = 0
KPD1 061823Z 23010KT 34/14 A3002 RMK A01 T03390141  RH  030%=      5-min Rain = 0
KPD1 061824Z 22012KT 34/14 A3002 RMK A01 T03380139  RH  030%=      5-min Rain = 0
KPD1 061825Z 20012G18KT 34/13 A3002 RMK A01 T03370132  RH  029%=      5-min Rain = 0
KPD1 061826Z 21013KT 34/13 A3002 RMK A01 T03370131  RH  029%=      5-min Rain = 0
KPD1 061827Z 21014G21KT 34/13 A3002 RMK A01 T03390127  RH  028%=      5-min Rain = 0
KPD1 061828Z 22011KT 34/13 A3002 RMK A01 T03370127  RH  028%=      5-min Rain = 0
KPD1 061829Z 21010KT 34/13 A3002 RMK A01 T03360129  RH  029%=      5-min Rain = 0
KPD1 061830Z 21010KT 34/13 A3002 RMK A01 T03380130  RH  029%=      5-min Rain = 0
KPD1 061831Z 22011G16KT 34/13 A3002 RMK A01 T03390129  RH  028%=      5-min Rain = 0
KPD1 061832Z 22012KT 34/13 A3002 RMK A01 T03390130  RH  028%=      5-min Rain = 0
KPD1 061833Z 22012KT 34/13 A3002 RMK A01 T03380130  RH  028%=      5-min Rain = 0
KPD1 061834Z 23011KT 34/13 A3002 RMK A01 T03370132  RH  029%=      5-min Rain = 0
KPD1 061835Z 22009G14KT 34/13 A3002 RMK A01 T03360134  RH  029%=      5-min Rain = 0
KPD1 061836Z 23007KT 34/13 A3002 RMK A01 T03370134  RH  029%=      5-min Rain = 0
KPD1 061837Z 20008G13KT 34/13 A3002 RMK A01 T03380134  RH  029%=      5-min Rain = 0
KPD1 061838Z 21007G12KT 34/14 A3002 RMK A01 T03390135  RH  029%=      5-min Rain = 0
KPD1 061839Z 21007KT 34/14 A3002 RMK A01 T03400135  RH  029%=      5-min Rain = 0
KPD1 061840Z 21006KT 34/14 A3002 RMK A01 T03410135  RH  029%=      5-min Rain = 0
KPD1 061841Z 21004KT 34/14 A3002 RMK A01 T03410135  RH  029%=      5-min Rain = 0
KPD1 061842Z 21010G15KT 34/14 A3002 RMK A01 T03410136  RH  029%=      5-min Rain = 0
KPD1 061843Z 22010KT 34/14 A3002 RMK A01 T03410135  RH  029%=      5-min Rain = 0
KPD1 061844Z 21012KT 34/14 A3002 RMK A01 T03420135  RH  029%=      5-min Rain = 0
KPD1 061845Z 22009KT 34/14 A3002 RMK A01 T03420136  RH  029%=      5-min Rain = 0
KPD1 061846Z 23011KT 34/14 A3002 RMK A01 T03420136  RH  029%=      5-min Rain = 0
KPD1 061847Z 22015KT 34/14 A3002 RMK A01 T03400135  RH  029%=      5-min Rain = 0
KPD1 061848Z 21013KT 34/13 A3002 RMK A01 T03380134  RH  029%=      5-min Rain = 0
KPD1 061849Z 21012KT 34/14 A3002 RMK A01 T03360135  RH  030%=      5-min Rain = 0
KPD1 061850Z 22009G15KT 34/14 A3002 RMK A01 T03370136  RH  030%=      5-min Rain = 0
KPD1 061851Z 23015KT 34/13 A3002 RMK A01 T03370134  RH  029%=      5-min Rain = 0
KPD1 061852Z 22014KT 34/13 A3002 RMK A01 T03360133  RH  029%=      5-min Rain = 0
KPD1 061853Z 22012KT 34/13 A3001 RMK A01 T03360133  RH  029%=      5-min Rain = 0
KPD1 061854Z 21012KT 34/13 A3001 RMK A01 T03360133  RH  029%=      5-min Rain = 0
KPD1 061855Z 21013KT 34/13 A3001 RMK A01 T03360130  RH  029%=      5-min Rain = 0
KPD1 061856Z 20013KT 34/13 A3001 RMK A01 T03370125  RH  028%=      5-min Rain = 0
KPD1 061857Z 21010G15KT 34/12 A3001 RMK A01 T03390119  RH  026%=      5-min Rain = 0
KPD1 061858Z 23012G17KT 34/12 A3001 RMK A01 T03400119  RH  026%=      5-min Rain = 0
KPD1 061859Z 22012KT 34/12 A3001 RMK A01 T03400121  RH  026%=      5-min Rain = 0
KPD1 061900Z 21010KT 34/12 A3001 RMK A01 T03410124  RH  027%=      5-min Rain = 0
KPD1 061901Z 22011KT 34/13 A3001 RMK A01 T03410127  RH  027%=      5-min Rain = 0
KPD1 061902Z 24011KT 34/13 A3001 RMK A01 T03430130  RH  028%=      5-min Rain = 0
KPD1 061903Z 21010KT 34/13 A3001 RMK A01 T03430133  RH  028%=      5-min Rain = 0
KPD1 061904Z 22009KT 35/14 A3001 RMK A01 T03450136  RH  028%=      5-min Rain = 0
KPD1 061905Z 21011KT 35/14 A3001 RMK A01 T03460136  RH  028%=      5-min Rain = 0
KPD1 061906Z 21013KT 35/14 A3001 RMK A01 T03460136  RH  028%=      5-min Rain = 0
KPD1 061907Z 22012KT 34/14 A3001 RMK A01 T03440136  RH  028%=      5-min Rain = 0
KPD1 061908Z 21015G20KT 34/14 A3001 RMK A01 T03420136  RH  029%=      5-min Rain = 0
KPD1 061909Z 22013G18KT 34/14 A3001 RMK A01 T03400135  RH  029%=      5-min Rain = 0
KPD1 061910Z 23014KT 34/14 A3001 RMK A01 T03390136  RH  030%=      5-min Rain = 0
KPD1 061911Z 23011G16KT 34/14 A3001 RMK A01 T03370137  RH  030%=      5-min Rain = 0
KPD1 061912Z 22012KT 34/14 A3001 RMK A01 T03370138  RH  030%=      5-min Rain = 0
KPD1 061913Z 22011KT 34/14 A3001 RMK A01 T03380138  RH  030%=      5-min Rain = 0
KPD1 061914Z 22014KT 34/14 A3001 RMK A01 T03380137  RH  030%=      5-min Rain = 0
KPD1 061915Z 21009KT 34/13 A3001 RMK A01 T03370134  RH  029%=      5-min Rain = 0
KPD1 061916Z 20012KT 34/13 A3001 RMK A01 T03360133  RH  029%=      5-min Rain = 0
KPD1 061917Z 20012KT 33/13 A3001 RMK A01 T03340131  RH  029%=      5-min Rain = 0
KPD1 061918Z 21008KT 33/13 A3001 RMK A01 T03340131  RH  029%=      5-min Rain = 0
KPD1 061919Z 20009G14KT 34/13 A3001 RMK A01 T03350131  RH  029%=      5-min Rain = 0
KPD1 061920Z 20011KT 34/13 A3001 RMK A01 T03390129  RH  028%=      5-min Rain = 0
KPD1 061921Z 20009G14KT 34/13 A3001 RMK A01 T03390128  RH  028%=      5-min Rain = 0
KPD1 061922Z 20010KT 34/13 A3001 RMK A01 T03400129  RH  028%=      5-min Rain = 0
KPD1 061923Z 20013KT 34/13 A3001 RMK A01 T03430126  RH  027%=      5-min Rain = 0
KPD1 061924Z 19013KT 34/12 A3001 RMK A01 T03440122  RH  026%=      5-min Rain = 0
KPD1 061925Z 22015KT 34/12 A3001 RMK A01 T03440122  RH  026%=      5-min Rain = 0
KPD1 061926Z 23012KT 34/12 A3001 RMK A01 T03430117  RH  025%=      5-min Rain = 0
KPD1 061927Z 22013KT 34/12 A3001 RMK A01 T03430118  RH  026%=      5-min Rain = 0
KPD1 061928Z 22010KT 35/12 A3001 RMK A01 T03450120  RH  026%=      5-min Rain = 0
KPD1 061929Z 22008KT 35/12 A3001 RMK A01 T03470122  RH  026%=      5-min Rain = 0
KPD1 061930Z 23008KT 35/12 A3001 RMK A01 T03500123  RH  026%=      5-min Rain = 0
KPD1 061931Z 21008G13KT 35/13 A30 RMK A01 T03530125  RH  025%=      5-min Rain = 0
KPD1 061932Z 20010KT 36/12 A30 RMK A01 T03560122  RH  024%=      5-min Rain = 0
KPD1 061933Z 22009G15KT 36/12 A30 RMK A01 T03590123  RH  024%=      5-min Rain = 0
KPD1 061934Z 23011KT 36/12 A30 RMK A01 T03600123  RH  024%=      5-min Rain = 0
KPD1 061935Z 23010G15KT 36/12 A30 RMK A01 T03560123  RH  025%=      5-min Rain = 0
KPD1 061936Z 21015KT 35/12 A30 RMK A01 T03530123  RH  025%=      5-min Rain = 0
KPD1 061937Z 20014KT 35/12 A30 RMK A01 T03500123  RH  025%=      5-min Rain = 0
KPD1 061938Z 20015G20KT 35/13 A30 RMK A01 T03490127  RH  026%=      5-min Rain = 0
KPD1 061939Z 21013KT 35/13 A30 RMK A01 T03480130  RH  027%=      5-min Rain = 0
KPD1 061940Z 20012KT 35/13 A30 RMK A01 T03480131  RH  027%=      5-min Rain = 0
KPD1 061941Z 20012KT 35/13 A30 RMK A01 T03470131  RH  027%=      5-min Rain = 0
KPD1 061942Z 21013KT 35/13 A30 RMK A01 T03460133  RH  028%=      5-min Rain = 0
KPD1 061943Z 21012KT 35/13 A30 RMK A01 T03450134  RH  028%=      5-min Rain = 0
KPD1 061944Z 21008KT 35/13 A30 RMK A01 T03450134  RH  028%=      5-min Rain = 0
KPD1 061945Z 20009G14KT 35/13 A30 RMK A01 T03450132  RH  028%=      5-min Rain = 0
KPD1 061946Z 20015G20KT 35/13 A30 RMK A01 T03450130  RH  027%=      5-min Rain = 0
KPD1 061947Z 20014G19KT 34/13 A30 RMK A01 T03440127  RH  027%=      5-min Rain = 0
KPD1 061948Z 20011KT 34/13 A30 RMK A01 T03420129  RH  028%=      5-min Rain = 0
KPD1 061949Z 20011KT 34/13 A30 RMK A01 T03420131  RH  028%=      5-min Rain = 0
KPD1 061950Z 20014KT 34/13 A30 RMK A01 T03410130  RH  028%=      5-min Rain = 0
KPD1 061951Z 21011G16KT 34/13 A30 RMK A01 T03410130  RH  028%=      5-min Rain = 0
KPD1 061952Z 22011KT 34/13 A30 RMK A01 T03410131  RH  028%=      5-min Rain = 0
KPD1 061953Z 19011KT 34/13 A30 RMK A01 T03420132  RH  028%=      5-min Rain = 0
KPD1 061954Z 21012KT 35/13 A30 RMK A01 T03450130  RH  027%=      5-min Rain = 0
KPD1 061955Z 20012KT 35/13 A30 RMK A01 T03460129  RH  027%=      5-min Rain = 0
KPD1 061956Z 21012KT 35/13 A30 RMK A01 T03450131  RH  027%=      5-min Rain = 0
KPD1 061957Z 19011KT 35/13 A30 RMK A01 T03450131  RH  028%=      5-min Rain = 0
KPD1 061958Z 18012KT 35/13 A30 RMK A01 T03450132  RH  028%=      5-min Rain = 0
KPD1 061959Z 18011KT 34/13 A30 RMK A01 T03440133  RH  028%=      5-min Rain = 0
KPD1 062000Z 17009KT 34/13 A30 RMK A01 T03440134  RH  028%=      5-min Rain = 0
KPD1 062001Z 18012G17KT 35/14 A30 RMK A01 T03460136  RH  028%=      5-min Rain = 0
KPD1 062002Z 18013KT 35/14 A30 RMK A01 T03460135  RH  028%=      5-min Rain = 0
KPD1 062003Z 19012KT 35/14 A30 RMK A01 T03450135  RH  028%=      5-min Rain = 0
KPD1 062004Z 19012KT 35/14 A30 RMK A01 T03450136  RH  028%=      5-min Rain = 0
KPD1 062005Z 19011KT 35/13 A30 RMK A01 T03450134  RH  028%=      5-min Rain = 0
KPD1 062006Z 19006KT 35/14 A30 RMK A01 T03450136  RH  029%=      5-min Rain = 0
KPD1 062007Z 17007G14KT 35/14 A30 RMK A01 T03470137  RH  028%=      5-min Rain = 0
KPD1 062008Z 18013G18KT 35/13 A30 RMK A01 T03500133  RH  027%=      5-min Rain = 0
KPD1 062009Z 17011KT 35/13 A30 RMK A01 T03500132  RH  027%=      5-min Rain = 0
KPD1 062010Z 17013KT 35/13 A30 RMK A01 T03490131  RH  027%=      5-min Rain = 0
KPD1 062011Z 18012KT 35/13 A30 RMK A01 T03490130  RH  027%=      5-min Rain = 0
KPD1 062012Z 18009G15KT 35/13 A30 RMK A01 T03480130  RH  027%=      5-min Rain = 0
KPD1 062013Z 18010KT 35/13 A30 RMK A01 T03480131  RH  027%=      5-min Rain = 0
KPD1 062014Z 18011KT 35/13 A30 RMK A01 T03480133  RH  027%=      5-min Rain = 0
KPD1 062015Z 18012G17KT 35/13 A30 RMK A01 T03490133  RH  027%=      5-min Rain = 0
KPD1 062016Z 19012KT 35/14 A30 RMK A01 T03490135  RH  028%=      5-min Rain = 0
KPD1 062017Z 21013KT 35/14 A30 RMK A01 T03480135  RH  028%=      5-min Rain = 0
KPD1 062018Z 20012G17KT 35/14 A30 RMK A01 T03450136  RH  028%=      5-min Rain = 0
KPD1 062019Z 18006G11KT 35/14 A30 RMK A01 T03450136  RH  028%=      5-min Rain = 0
KPD1 062020Z 17011G17KT 35/14 A30 RMK A01 T03460137  RH  028%=      5-min Rain = 0
KPD1 062021Z 17011KT 35/14 A2999 RMK A01 T03470137  RH  028%=      5-min Rain = 0
KPD1 062022Z 17009G14KT 35/14 A2999 RMK A01 T03470137  RH  028%=      5-min Rain = 0
KPD1 062023Z 17010KT 35/14 A2999 RMK A01 T03470137  RH  028%=      5-min Rain = 0
KPD1 062024Z 17012KT 35/14 A2999 RMK A01 T03480136  RH  028%=      5-min Rain = 0
KPD1 062025Z 18012KT 35/14 A2999 RMK A01 T03480136  RH  028%=      5-min Rain = 0
KPD1 062026Z 18011KT 35/14 A2999 RMK A01 T03490136  RH  028%=      5-min Rain = 0
KPD1 062027Z 16010KT 35/14 A2999 RMK A01 T03490136  RH  028%=      5-min Rain = 0
KPD1 062028Z 17007KT 35/14 A2999 RMK A01 T03480135  RH  028%=      5-min Rain = 0
KPD1 062029Z 18009KT 35/13 A2999 RMK A01 T03480134  RH  028%=      5-min Rain = 0
KPD1 062030Z 17008G14KT 35/13 A2999 RMK A01 T03500134  RH  027%=      5-min Rain = 0
KPD1 062031Z 17008KT 35/13 A2999 RMK A01 T03530132  RH  027%=      5-min Rain = 0
KPD1 062032Z 15012KT 35/13 A2999 RMK A01 T03530130  RH  026%=      5-min Rain = 0
KPD1 062033Z 16008KT 35/13 A2999 RMK A01 T03530130  RH  026%=      5-min Rain = 0
KPD1 062034Z 16007KT 36/13 A2999 RMK A01 T03550132  RH  026%=      5-min Rain = 0
KPD1 062035Z 17007KT 36/13 A2999 RMK A01 T03600134  RH  026%=      5-min Rain = 0
KPD1 062036Z 18010KT 37/13 A2998 RMK A01 T03670134  RH  025%=      5-min Rain = 0
KPD1 062037Z 16007KT 37/13 A2998 RMK A01 T03690132  RH  024%=      5-min Rain = 0
KPD1 062038Z 17007KT 37/13 A2998 RMK A01 T03690132  RH  024%=      5-min Rain = 0
KPD1 062039Z 15012KT 37/13 A2998 RMK A01 T03690133  RH  024%=      5-min Rain = 0
KPD1 062040Z 16011KT 37/13 A2998 RMK A01 T03690131  RH  024%=      5-min Rain = 0
KPD1 062041Z 18010KT 37/13 A2998 RMK A01 T03650130  RH  024%=      5-min Rain = 0
KPD1 062042Z 17008KT 36/13 A2998 RMK A01 T03630131  RH  025%=      5-min Rain = 0
KPD1 062043Z 15009KT 36/13 A2998 RMK A01 T03630132  RH  025%=      5-min Rain = 0
KPD1 062044Z 17015KT 36/13 A2998 RMK A01 T03640131  RH  025%=      5-min Rain = 0
KPD1 062045Z 19014KT 36/13 A2998 RMK A01 T03630130  RH  025%=      5-min Rain = 0
KPD1 062046Z 18008G13KT 36/13 A2998 RMK A01 T03600128  RH  025%=      5-min Rain = 0
KPD1 062047Z 16010G18KT 36/13 A2998 RMK A01 T03590129  RH  025%=      5-min Rain = 0
KPD1 062048Z 16014KT 36/13 A2998 RMK A01 T03620129  RH  025%=      5-min Rain = 0
KPD1 062049Z 17010G17KT 37/13 A2998 RMK A01 T03650131  RH  025%=      5-min Rain = 0
KPD1 062050Z 19007KT 37/13 A2998 RMK A01 T03700132  RH  024%=      5-min Rain = 0
KPD1 062051Z 17009KT 37/13 A2998 RMK A01 T03710131  RH  024%=      5-min Rain = 0
KPD1 062052Z 18006KT 37/13 A2998 RMK A01 T03700133  RH  024%=      5-min Rain = 0
KPD1 062053Z 18008KT 37/14 A2998 RMK A01 T03700135  RH  025%=      5-min Rain = 0
KPD1 062054Z 17010KT 37/14 A2998 RMK A01 T03700136  RH  025%=      5-min Rain = 0
KPD1 062055Z 18011KT 37/14 A2997 RMK A01 T03690138  RH  025%=      5-min Rain = 0
KPD1 062056Z 18010KT 37/14 A2997 RMK A01 T03700139  RH  025%=      5-min Rain = 0
KPD1 062057Z 17012KT 37/14 A2997 RMK A01 T03720139  RH  025%=      5-min Rain = 0
KPD1 062058Z 17011G16KT 37/14 A2997 RMK A01 T03710138  RH  025%=      5-min Rain = 0
KPD1 062059Z 19010G15KT 37/14 A2997 RMK A01 T03700139  RH  025%=      5-min Rain = 0
KPD1 062100Z 16009G14KT 37/14 A2997 RMK A01 T03730139  RH  025%=      5-min Rain = 0
KPD1 062101Z 16012G19KT 38/14 A2997 RMK A01 T03780139  RH  024%=      5-min Rain = 0
KPD1 062102Z 16013KT 38/13 A2997 RMK A01 T03790134  RH  023%=      5-min Rain = 0
KPD1 062103Z 18012G17KT 38/13 A2997 RMK A01 T03760133  RH  024%=      5-min Rain = 0
KPD1 062104Z 17011G17KT 38/13 A2997 RMK A01 T03750134  RH  024%=      5-min Rain = 0
KPD1 062105Z 16010G16KT 38/14 A2997 RMK A01 T03760135  RH  024%=      5-min Rain = 0
KPD1 062106Z 16016G24KT 38/14 A2996 RMK A01 T03790136  RH  024%=      5-min Rain = 0
KPD1 062107Z 17019G24KT 38/13 A2996 RMK A01 T03770134  RH  024%=      5-min Rain = 0
KPD1 062108Z 17017G22KT 37/13 A2996 RMK A01 T03740130  RH  023%=      5-min Rain = 0
KPD1 062109Z 17013KT 37/13 A2996 RMK A01 T03720129  RH  023%=      5-min Rain = 0
KPD1 062110Z 19010KT 37/13 A2996 RMK A01 T03710130  RH  024%=      5-min Rain = 0
KPD1 062111Z 19011G16KT 37/13 A2996 RMK A01 T03710129  RH  024%=      5-min Rain = 0
KPD1 062112Z 19012KT 37/13 A2996 RMK A01 T03690127  RH  023%=      5-min Rain = 0
KPD1 062113Z 20016KT 37/13 A2996 RMK A01 T03670126  RH  024%=      5-min Rain = 0
KPD1 062114Z 19013KT 37/13 A2996 RMK A01 T03660125  RH  024%=      5-min Rain = 0
KPD1 062115Z 18010G16KT 36/12 A2996 RMK A01 T03640123  RH  024%=      5-min Rain = 0
KPD1 062116Z 18012G17KT 36/12 A2996 RMK A01 T03640124  RH  024%=      5-min Rain = 0
KPD1 062117Z 21010G15KT 37/12 A2996 RMK A01 T03660123  RH  023%=      5-min Rain = 0
KPD1 062118Z 21012KT 37/12 A2996 RMK A01 T03660122  RH  023%=      5-min Rain = 0
KPD1 062119Z 21013G19KT 37/12 A2996 RMK A01 T03660120  RH  023%=      5-min Rain = 0
KPD1 062120Z 22011KT 37/12 A2996 RMK A01 T03660118  RH  023%=      5-min Rain = 0
KPD1 062121Z 21010KT 36/12 A2996 RMK A01 T03640118  RH  023%=      5-min Rain = 0
KPD1 062122Z 20011KT 37/12 A2996 RMK A01 T03660119  RH  023%=      5-min Rain = 0
KPD1 062123Z 19010G16KT 37/12 A2996 RMK A01 T03710121  RH  022%=      5-min Rain = 0
KPD1 062124Z 19009KT 37/12 A2996 RMK A01 T03740122  RH  022%=      5-min Rain = 0
KPD1 062125Z 22012G18KT 38/12 A2996 RMK A01 T03750120  RH  022%=      5-min Rain = 0
KPD1 062126Z 19013KT 38/12 A2996 RMK A01 T03750118  RH  021%=      5-min Rain = 0
KPD1 062127Z 21010KT 38/12 A2996 RMK A01 T03760119  RH  022%=      5-min Rain = 0
KPD1 062128Z 21009KT 38/12 A2996 RMK A01 T03780119  RH  021%=      5-min Rain = 0
KPD1 062129Z 20008KT 38/12 A2996 RMK A01 T03810119  RH  021%=      5-min Rain = 0
KPD1 062130Z 19012KT 38/12 A2996 RMK A01 T03820119  RH  021%=      5-min Rain = 0
KPD1 062131Z 20014G19KT 38/12 A2996 RMK A01 T03800116  RH  021%=      5-min Rain = 0
KPD1 062132Z 19014KT 37/12 A2996 RMK A01 T03740115  RH  021%=      5-min Rain = 0
KPD1 062133Z 18015G22KT 37/12 A2996 RMK A01 T03690115  RH  022%=      5-min Rain = 0
KPD1 062134Z 18014G21KT 37/12 A2996 RMK A01 T03650115  RH  022%=      5-min Rain = 0
KPD1 062135Z 18012G18KT 36/12 A2996 RMK A01 T03620115  RH  023%=      5-min Rain = 0
KPD1 062136Z 18012KT 36/12 A2996 RMK A01 T03610116  RH  023%=      5-min Rain = 0
KPD1 062137Z 17009KT 36/12 A2996 RMK A01 T03600116  RH  023%=      5-min Rain = 0
KPD1 062138Z 18009KT 36/12 A2996 RMK A01 T03590116  RH  023%=      5-min Rain = 0
KPD1 062139Z 17011KT 36/12 A2995 RMK A01 T03590116  RH  023%=      5-min Rain = 0
KPD1 062140Z 16011KT 36/12 A2995 RMK A01 T03580117  RH  023%=      5-min Rain = 0
KPD1 062141Z 17010KT 36/12 A2995 RMK A01 T03560118  RH  024%=      5-min Rain = 0
KPD1 062142Z 18008KT 36/12 A2995 RMK A01 T03560118  RH  024%=      5-min Rain = 0
KPD1 062143Z 19009KT 36/12 A2995 RMK A01 T03550117  RH  024%=      5-min Rain = 0
KPD1 062144Z 18010KT 36/12 A2995 RMK A01 T03570118  RH  024%=      5-min Rain = 0
KPD1 062145Z 19011G18KT 36/12 A2995 RMK A01 T03570118  RH  024%=      5-min Rain = 0
KPD1 062146Z 19012KT 36/12 A2995 RMK A01 T03570117  RH  023%=      5-min Rain = 0
KPD1 062147Z 19010KT 36/12 A2995 RMK A01 T03570116  RH  023%=      5-min Rain = 0
KPD1 062148Z 19009G14KT 36/12 A2995 RMK A01 T03570117  RH  023%=      5-min Rain = 0
KPD1 062149Z 17010KT 36/12 A2995 RMK A01 T03580124  RH  024%=      5-min Rain = 0
KPD1 062150Z 18010KT 36/14 A2995 RMK A01 T03550135  RH  027%=      5-min Rain = 0
KPD1 062151Z 17007G12KT 35/14 A2995 RMK A01 T03500135  RH  028%=      5-min Rain = 0
KPD1 062152Z 19005KT 35/14 A2995 RMK A01 T03460138  RH  029%=      5-min Rain = 0
KPD1 062153Z 16005KT 34/13 A2995 RMK A01 T03430134  RH  028%=      5-min Rain = 0
KPD1 062154Z 16006KT 34/13 A2995 RMK A01 T03420133  RH  028%=      5-min Rain = 0
KPD1 062155Z 16010KT 34/13 A2995 RMK A01 T03420129  RH  028%=      5-min Rain = 0
KPD1 062156Z 16009KT 34/13 A2995 RMK A01 T03430125  RH  027%=      5-min Rain = 0
KPD1 062157Z 19007KT 35/13 A2995 RMK A01 T03450125  RH  026%=      5-min Rain = 0
KPD1 062158Z 20008G13KT 35/13 A2995 RMK A01 T03470125  RH  026%=      5-min Rain = 0
KPD1 062159Z 20016KT 35/12 A2995 RMK A01 T03470122  RH  026%=      5-min Rain = 0
KPD1 062200Z 20015KT 35/12 A2995 RMK A01 T03480121  RH  025%=      5-min Rain = 0
KPD1 062201Z 20015KT 35/12 A2995 RMK A01 T03480120  RH  025%=      5-min Rain = 0
KPD1 062202Z 20015KT 35/12 A2995 RMK A01 T03480120  RH  025%=      5-min Rain = 0
KPD1 062203Z 19014G19KT 35/12 A2995 RMK A01 T03490120  RH  025%=      5-min Rain = 0
KPD1 062204Z 19011KT 35/12 A2995 RMK A01 T03480120  RH  025%=      5-min Rain = 0
KPD1 062205Z 20013KT 35/12 A2995 RMK A01 T03480120  RH  025%=      5-min Rain = 0
KPD1 062206Z 20012KT 35/12 A2994 RMK A01 T03480120  RH  025%=      5-min Rain = 0
KPD1 062207Z 20010KT 35/12 A2995 RMK A01 T03480121  RH  025%=      5-min Rain = 0
KPD1 062208Z 20010G15KT 35/12 A2995 RMK A01 T03480121  RH  025%=      5-min Rain = 0
KPD1 062209Z 20010KT 35/12 A2994 RMK A01 T03490121  RH  025%=      5-min Rain = 0
KPD1 062210Z 20010KT 35/12 A2994 RMK A01 T03480120  RH  025%=      5-min Rain = 0
KPD1 062211Z 19009KT 35/12 A2994 RMK A01 T03480120  RH  025%=      5-min Rain = 0
KPD1 062212Z 18008KT 35/12 A2994 RMK A01 T03490121  RH  025%=      5-min Rain = 0
KPD1 062213Z 18007KT 35/12 A2994 RMK A01 T03480121  RH  025%=      5-min Rain = 0
KPD1 062214Z 17006KT 35/12 A2994 RMK A01 T03490122  RH  025%=      5-min Rain = 0
KPD1 062215Z 17008KT 35/12 A2994 RMK A01 T03480122  RH  025%=      5-min Rain = 0
KPD1 062216Z 15009KT 35/12 A2994 RMK A01 T03480120  RH  025%=      5-min Rain = 0
KPD1 062217Z 16009KT 35/12 A2994 RMK A01 T03480120  RH  025%=      5-min Rain = 0
KPD1 062218Z 17008KT 35/12 A2995 RMK A01 T03480120  RH  025%=      5-min Rain = 0
KPD1 062219Z 18006KT 35/12 A2995 RMK A01 T03480120  RH  025%=      5-min Rain = 0
KPD1 062220Z 18007KT 35/12 A2995 RMK A01 T03480120  RH  025%=      5-min Rain = 0
KPD1 062221Z 19008KT 35/12 A2995 RMK A01 T03480120  RH  025%=      5-min Rain = 0
KPD1 062222Z 19007KT 35/13 A2995 RMK A01 T03480125  RH  026%=      5-min Rain = 0
KPD1 062223Z 19006KT 35/13 A2995 RMK A01 T03450127  RH  027%=      5-min Rain = 0
KPD1 062224Z 19006KT 34/13 A2995 RMK A01 T03440131  RH  028%=      5-min Rain = 0
KPD1 062225Z 19005KT 34/13 A2995 RMK A01 T03410134  RH  029%=      5-min Rain = 0
KPD1 062226Z 18005KT 34/13 A2995 RMK A01 T03400134  RH  029%=      5-min Rain = 0
KPD1 062227Z 19005KT 34/13 A2995 RMK A01 T03380132  RH  029%=      5-min Rain = 0
KPD1 062228Z 20006KT 34/13 A2995 RMK A01 T03380131  RH  029%=      5-min Rain = 0
KPD1 062229Z 22003KT 34/15 A2995 RMK A01 T03370151  RH  033%=      5-min Rain = 0
KPD1 062230Z 28003KT 33/17 A2995 RMK A01 T03310170  RH  038%=      5-min Rain = 0.02
KPD1 062231Z 31006KT 32/20 A2995 RMK A01 T03180195  RH  048%=      5-min Rain = 0.02
KPD1 062232Z 32010KT 30/19 A2995 RMK A01 T02990192  RH  053%=      5-min Rain = 0.02
KPD1 062233Z 33014KT 28/18 A2995 RMK A01 T02800183  RH  055%=      5-min Rain = 0.03
KPD1 062234Z 34020KT 26/17 A2995 RMK A01 T02600174  RH  059%=      5-min Rain = 0.03
KPD1 062235Z 35015KT 24/17 A2995 RMK A01 T02440169  RH  063%=      5-min Rain = 0.02
KPD1 062236Z 36011KT 24/17 A2995 RMK A01 T02350167  RH  065%=      5-min Rain = 0.01
KPD1 062237Z 00012KT 23/17 A2995 RMK A01 T02330171  RH  068%=      5-min Rain = 0
KPD1 062238Z 00010KT 23/17 A2995 RMK A01 T02320172  RH  069%=      5-min Rain = 0.01
KPD1 062239Z 36010KT 23/17 A2996 RMK A01 T02340174  RH  069%=      5-min Rain = 0
KPD1 062240Z 01009KT 24/17 A2996 RMK A01 T02360169  RH  066%=      5-min Rain = 0
KPD1 062241Z 02007G12KT 24/17 A2996 RMK A01 T02400166  RH  063%=      5-min Rain = 0
KPD1 062242Z 34003G9KT 25/16 A2996 RMK A01 T02450164  RH  061%=      5-min Rain = 0
KPD1 062243Z 06006G12KT 25/16 A2997 RMK A01 T02480162  RH  059%=      5-min Rain = 0
KPD1 062244Z 07009G15KT 25/17 A2997 RMK A01 T02510165  RH  059%=      5-min Rain = 0
KPD1 062245Z 07010KT 25/17 A2997 RMK A01 T02490169  RH  061%=      5-min Rain = 0
KPD1 062246Z 07008KT 25/17 A2997 RMK A01 T02460171  RH  063%=      5-min Rain = 0
KPD1 062247Z 06005KT 25/17 A2997 RMK A01 T02450170  RH  063%=      5-min Rain = 0
KPD1 062248Z 08005KT 25/17 A2997 RMK A01 T02450174  RH  065%=      5-min Rain = 0
KPD1 062249Z 08009KT 25/18 A2997 RMK A01 T02450175  RH  065%=      5-min Rain = 0
KPD1 062250Z 09009KT 25/16 A2997 RMK A01 T02480161  RH  059%=      5-min Rain = 0
KPD1 062251Z 10008KT 26/16 A2997 RMK A01 T02560157  RH  054%=      5-min Rain = 0
KPD1 062252Z 10008KT 26/16 A2997 RMK A01 T02630161  RH  053%=      5-min Rain = 0
KPD1 062253Z 11007KT 27/17 A2996 RMK A01 T02690165  RH  053%=      5-min Rain = 0
KPD1 062254Z 19010G16KT 27/17 A2997 RMK A01 T02740167  RH  052%=      5-min Rain = 0
KPD1 062255Z 19011KT 28/17 A2997 RMK A01 T02760171  RH  053%=      5-min Rain = 0
KPD1 062256Z 17010KT 27/17 A2997 RMK A01 T02730170  RH  053%=      5-min Rain = 0
KPD1 062257Z 20013G24KT 27/17 A2997 RMK A01 T02700167  RH  053%=      5-min Rain = 0
KPD1 062258Z 21017G24KT 27/15 A2996 RMK A01 T02710153  RH  048%=      5-min Rain = 0
KPD1 062259Z 21031G37KT 27/16 A2996 RMK A01 T02730164  RH  051%=      5-min Rain = 0.01
KPD1 062300Z 22019G32KT 27/16 A2996 RMK A01 T02660161  RH  053%=      5-min Rain = 0
KPD1 062301Z 17016G22KT 26/17 A2996 RMK A01 T02580169  RH  058%=      5-min Rain = 0.01
KPD1 062302Z 16017G24KT 25/17 A2996 RMK A01 T02510171  RH  061%=      5-min Rain = 0
KPD1 062303Z 15015KT 25/17 A2996 RMK A01 T02490166  RH  060%=      5-min Rain = 0
KPD1 062304Z 15012G17KT 25/17 A2996 RMK A01 T02520174  RH  062%=      5-min Rain = 0
KPD1 062305Z 15016G29KT 25/18 A2996 RMK A01 T02520175  RH  062%=      5-min Rain = 0
KPD1 062306Z 14019KT 25/17 A2995 RMK A01 T02520167  RH  059%=      5-min Rain = 0
KPD1 062307Z 12016KT 26/16 A2996 RMK A01 T02560164  RH  057%=      5-min Rain = 0
KPD1 062308Z 14017G27KT 26/16 A2996 RMK A01 T02620158  RH  053%=      5-min Rain = 0
KPD1 062309Z 14021G26KT 27/15 A2996 RMK A01 T02670154  RH  050%=      5-min Rain = 0
KPD1 062310Z 14017G23KT 27/15 A2996 RMK A01 T02710154  RH  049%=      5-min Rain = 0
KPD1 062311Z 13011G17KT 27/16 A2996 RMK A01 T02740159  RH  050%=      5-min Rain = 0
KPD1 062312Z 13012KT 27/16 A2996 RMK A01 T02740160  RH  050%=      5-min Rain = 0
KPD1 062313Z 12019G25KT 27/16 A2996 RMK A01 T02700160  RH  051%=      5-min Rain = 0
KPD1 062314Z 13019G24KT 27/16 A2996 RMK A01 T02660160  RH  052%=      5-min Rain = 0
KPD1 062315Z 13015G23KT 26/16 A2996 RMK A01 T02630157  RH  052%=      5-min Rain = 0
KPD1 062316Z 13011KT 26/15 A2996 RMK A01 T02620151  RH  050%=      5-min Rain = 0
KPD1 062317Z 12007KT 26/15 A2996 RMK A01 T02640147  RH  049%=      5-min Rain = 0
KPD1 062318Z 15007G13KT 27/15 A2996 RMK A01 T02680147  RH  048%=      5-min Rain = 0
KPD1 062319Z 16010G18KT 27/16 A2996 RMK A01 T02690155  RH  050%=      5-min Rain = 0
KPD1 062320Z 16005KT 27/15 A2996 RMK A01 T02680150  RH  048%=      5-min Rain = 0
KPD1 062321Z 14010KT 27/15 A2996 RMK A01 T02680152  RH  049%=      5-min Rain = 0
KPD1 062322Z 14007KT 27/15 A2996 RMK A01 T02700150  RH  048%=      5-min Rain = 0
KPD1 062323Z 17004KT 27/15 A2995 RMK A01 T02720147  RH  046%=      5-min Rain = 0
KPD1 062324Z 10001KT 28/15 A2996 RMK A01 T02750151  RH  047%=      5-min Rain = 0
KPD1 062325Z 19004KT 28/15 A2996 RMK A01 T02760153  RH  047%=      5-min Rain = 0
KPD1 062326Z 17008KT 28/16 A2996 RMK A01 T02770159  RH  049%=      5-min Rain = 0
KPD1 062327Z 20005KT 28/16 A2996 RMK A01 T02770156  RH  048%=      5-min Rain = 0
KPD1 062328Z 19006KT 28/16 A2996 RMK A01 T02770160  RH  049%=      5-min Rain = 0
KPD1 062329Z 20006KT 28/16 A2996 RMK A01 T02780164  RH  050%=      5-min Rain = 0
KPD1 062330Z 19007KT 28/17 A2997 RMK A01 T02800165  RH  049%=      5-min Rain = 0
KPD1 062331Z 20010KT 28/17 A2997 RMK A01 T02830165  RH  049%=      5-min Rain = 0
KPD1 062332Z 21009KT 29/16 A2997 RMK A01 T02860160  RH  046%=      5-min Rain = 0
KPD1 062333Z 19007KT 29/16 A2997 RMK A01 T02890162  RH  046%=      5-min Rain = 0
KPD1 062334Z 18009G14KT 29/15 A2997 RMK A01 T02920153  RH  043%=      5-min Rain = 0
KPD1 062335Z 17011KT 30/15 A2997 RMK A01 T02950153  RH  042%=      5-min Rain = 0
KPD1 062336Z 18009G16KT 30/16 A2997 RMK A01 T02970156  RH  043%=      5-min Rain = 0
KPD1 062337Z 17013KT 30/15 A2997 RMK A01 T02990151  RH  041%=      5-min Rain = 0
KPD1 062338Z 17010KT 30/16 A2997 RMK A01 T03000158  RH  042%=      5-min Rain = 0
KPD1 062339Z 16010KT 30/16 A2997 RMK A01 T03000160  RH  043%=      5-min Rain = 0
KPD1 062340Z 15011KT 30/16 A2998 RMK A01 T02980163  RH  044%=      5-min Rain = 0
KPD1 062341Z 15011G16KT 30/16 A2998 RMK A01 T02970161  RH  044%=      5-min Rain = 0
KPD1 062342Z 16007KT 30/16 A2998 RMK A01 T02960161  RH  044%=      5-min Rain = 0
KPD1 062343Z 14007KT 29/17 A2997 RMK A01 T02940165  RH  046%=      5-min Rain = 0
KPD1 062344Z 13006KT 29/16 A2997 RMK A01 T02940162  RH  045%=      5-min Rain = 0
KPD1 062345Z 14005KT 29/16 A2997 RMK A01 T02940164  RH  046%=      5-min Rain = 0
KPD1 062346Z 16007KT 29/16 A2997 RMK A01 T02940161  RH  045%=      5-min Rain = 0
KPD1 062347Z 17006KT 29/16 A2997 RMK A01 T02930160  RH  045%=      5-min Rain = 0
KPD1 062348Z 16008KT 30/16 A2997 RMK A01 T02950162  RH  045%=      5-min Rain = 0
KPD1 062349Z 16007KT 30/17 A2997 RMK A01 T02950165  RH  045%=      5-min Rain = 0
KPD1 062350Z 17009G14KT 30/16 A2997 RMK A01 T02960160  RH  044%=      5-min Rain = 0
KPD1 062351Z 16010KT 30/15 A2996 RMK A01 T02970153  RH  042%=      5-min Rain = 0
KPD1 062352Z 16010KT 30/15 A2996 RMK A01 T02980148  RH  040%=      5-min Rain = 0
KPD1 062353Z 17007KT 30/15 A2996 RMK A01 T02980146  RH  040%=      5-min Rain = 0
KPD1 062354Z 17011KT 30/15 A2996 RMK A01 T02990148  RH  040%=      5-min Rain = 0
KPD1 062355Z 16011KT 30/14 A2996 RMK A01 T02990143  RH  038%=      5-min Rain = 0
KPD1 062356Z 17008G13KT 30/14 A2996 RMK A01 T03000143  RH  038%=      5-min Rain = 0
KPD1 062357Z 16007KT 30/15 A2996 RMK A01 T03000147  RH  039%=      5-min Rain = 0
KPD1 062358Z 15011G16KT 30/15 A2996 RMK A01 T02990147  RH  040%=      5-min Rain = 0
KPD1 062359Z 14009KT 30/15 A2996 RMK A01 T02980150  RH  041%=      5-min Rain = 0
KPD1 070000Z 14008G15KT 30/15 A2996 RMK A01 T02970152  RH  041%=      5-min Rain = 0
KPD1 070001Z 14008KT 30/15 A2996 RMK A01 T02960152  RH  041%=      5-min Rain = 0
KPD1 070002Z 13009KT 30/15 A2996 RMK A01 T02970151  RH  041%=      5-min Rain = 0
KPD1 070003Z 13008KT 30/15 A2996 RMK A01 T02970151  RH  041%=      5-min Rain = 0
KPD1 070004Z 13009KT 30/15 A2996 RMK A01 T02950150  RH  041%=      5-min Rain = 0
KPD1 070005Z 13009KT 29/15 A2996 RMK A01 T02940150  RH  042%=      5-min Rain = 0
KPD1 070006Z 13008KT 29/15 A2995 RMK A01 T02920151  RH  042%=      5-min Rain = 0
KPD1 070007Z 13005KT 29/15 A2995 RMK A01 T02910153  RH  043%=      5-min Rain = 0
KPD1 070008Z 14004KT 29/16 A2995 RMK A01 T02900155  RH  044%=      5-min Rain = 0
KPD1 070009Z 14007G12KT 29/16 A2995 RMK A01 T02890156  RH  045%=      5-min Rain = 0
KPD1 070010Z 13007KT 29/15 A2995 RMK A01 T02890151  RH  043%=      5-min Rain = 0
KPD1 070011Z 14009KT 29/15 A2995 RMK A01 T02880150  RH  043%=      5-min Rain = 0
KPD1 070012Z 13010KT 29/14 A2995 RMK A01 T02890144  RH  041%=      5-min Rain = 0
KPD1 070013Z 15009KT 29/15 A2995 RMK A01 T02900146  RH  041%=      5-min Rain = 0
KPD1 070014Z 15009KT 29/15 A2995 RMK A01 T02910146  RH  041%=      5-min Rain = 0
KPD1 070015Z 15008G14KT 29/15 A2995 RMK A01 T02910147  RH  042%=      5-min Rain = 0
KPD1 070016Z 15007KT 29/15 A2995 RMK A01 T02910147  RH  041%=      5-min Rain = 0
KPD1 070017Z 15008KT 29/15 A2995 RMK A01 T02920148  RH  041%=      5-min Rain = 0
KPD1 070018Z 15007KT 29/15 A2995 RMK A01 T02920147  RH  041%=      5-min Rain = 0
KPD1 070019Z 15008KT 29/15 A2995 RMK A01 T02930148  RH  041%=      5-min Rain = 0
KPD1 070020Z 15006KT 29/15 A2995 RMK A01 T02930148  RH  041%=      5-min Rain = 0
KPD1 070021Z 15007KT 29/15 A2995 RMK A01 T02940148  RH  041%=      5-min Rain = 0
KPD1 070022Z 16007KT 29/15 A2995 RMK A01 T02930147  RH  041%=      5-min Rain = 0
KPD1 070023Z 15006KT 29/15 A2995 RMK A01 T02940149  RH  041%=      5-min Rain = 0
KPD1 070024Z 15005KT 29/15 A2995 RMK A01 T02940148  RH  041%=      5-min Rain = 0
KPD1 070025Z 13007KT 29/15 A2995 RMK A01 T02930150  RH  042%=      5-min Rain = 0
KPD1 070026Z 15006KT 29/15 A2995 RMK A01 T02910150  RH  042%=      5-min Rain = 0
KPD1 070027Z 15005KT 29/15 A2995 RMK A01 T02900148  RH  042%=      5-min Rain = 0
KPD1 070028Z 14005KT 29/15 A2995 RMK A01 T02890147  RH  042%=      5-min Rain = 0
KPD1 070029Z 15005KT 29/15 A2995 RMK A01 T02890149  RH  042%=      5-min Rain = 0
KPD1 070030Z 16004KT 29/15 A2995 RMK A01 T02880148  RH  043%=      5-min Rain = 0
KPD1 070031Z 14004KT 29/15 A2995 RMK A01 T02880151  RH  043%=      5-min Rain = 0
KPD1 070032Z 15006KT 29/15 A2995 RMK A01 T02870151  RH  043%=      5-min Rain = 0
KPD1 070033Z 16004KT 29/15 A2995 RMK A01 T02860147  RH  043%=      5-min Rain = 0
KPD1 070034Z 16005KT 29/15 A2995 RMK A01 T02860147  RH  043%=      5-min Rain = 0
KPD1 070035Z 17005KT 29/15 A2995 RMK A01 T02860149  RH  043%=      5-min Rain = 0
KPD1 070036Z 15005KT 29/15 A2995 RMK A01 T02870147  RH  042%=      5-min Rain = 0
KPD1 070037Z 17003KT 29/15 A2995 RMK A01 T02870146  RH  042%=      5-min Rain = 0
KPD1 070038Z 16006KT 29/15 A2995 RMK A01 T02890149  RH  042%=      5-min Rain = 0
KPD1 070039Z 16005KT 29/15 A2995 RMK A01 T02900149  RH  042%=      5-min Rain = 0
KPD1 070040Z 17005KT 29/15 A2995 RMK A01 T02910151  RH  043%=      5-min Rain = 0
KPD1 070041Z 17004KT 29/15 A2995 RMK A01 T02910150  RH  042%=      5-min Rain = 0
KPD1 070042Z 18004KT 29/15 A2995 RMK A01 T02910152  RH  043%=      5-min Rain = 0
KPD1 070043Z 18004KT 29/15 A2995 RMK A01 T02890151  RH  043%=      5-min Rain = 0
KPD1 070044Z 18005KT 29/15 A2995 RMK A01 T02880151  RH  043%=      5-min Rain = 0
KPD1 070045Z 17005KT 29/15 A2995 RMK A01 T02860150  RH  043%=      5-min Rain = 0
KPD1 070046Z 17004KT 29/15 A2995 RMK A01 T02860148  RH  043%=      5-min Rain = 0
KPD1 070047Z 17005KT 29/15 A2995 RMK A01 T02860149  RH  043%=      5-min Rain = 0
KPD1 070048Z 15003KT 29/15 A2995 RMK A01 T02860148  RH  043%=      5-min Rain = 0
KPD1 070049Z 13005KT 29/15 A2995 RMK A01 T02870149  RH  043%=      5-min Rain = 0
KPD1 070050Z 16005KT 29/15 A2995 RMK A01 T02880146  RH  042%=      5-min Rain = 0
KPD1 070051Z 14007KT 29/15 A2995 RMK A01 T02880147  RH  042%=      5-min Rain = 0
KPD1 070052Z 14006KT 29/15 A2995 RMK A01 T02890147  RH  042%=      5-min Rain = 0
KPD1 070053Z 14004KT 29/15 A2995 RMK A01 T02880146  RH  042%=      5-min Rain = 0
KPD1 070054Z 14006KT 29/15 A2995 RMK A01 T02880148  RH  042%=      5-min Rain = 0
KPD1 070055Z 14007KT 29/15 A2995 RMK A01 T02880145  RH  042%=      5-min Rain = 0
KPD1 070056Z 13005KT 29/14 A2995 RMK A01 T02880144  RH  042%=      5-min Rain = 0
KPD1 070057Z 15006KT 29/15 A2995 RMK A01 T02870147  RH  042%=      5-min Rain = 0
KPD1 070058Z 15005KT 29/15 A2995 RMK A01 T02860147  RH  042%=      5-min Rain = 0
KPD1 070059Z 15006KT 29/15 A2995 RMK A01 T02860146  RH  042%=      5-min Rain = 0
KPD1 070100Z 16007KT 29/15 A2995 RMK A01 T02850147  RH  043%=      5-min Rain = 0
KPD1 070101Z 17006KT 28/15 A2995 RMK A01 T02840147  RH  043%=      5-min Rain = 0
KPD1 070102Z 16007KT 28/15 A2995 RMK A01 T02840149  RH  044%=      5-min Rain = 0
KPD1 070103Z 15005KT 28/15 A2995 RMK A01 T02830149  RH  044%=      5-min Rain = 0
KPD1 070104Z 15005KT 28/15 A2995 RMK A01 T02830146  RH  043%=      5-min Rain = 0
KPD1 070105Z 16004KT 28/15 A2995 RMK A01 T02820145  RH  043%=      5-min Rain = 0
KPD1 070106Z 16005KT 28/15 A2995 RMK A01 T02820147  RH  044%=      5-min Rain = 0
KPD1 070107Z 16005KT 28/15 A2995 RMK A01 T02810146  RH  044%=      5-min Rain = 0
KPD1 070108Z 15006KT 28/15 A2995 RMK A01 T02810147  RH  044%=      5-min Rain = 0
KPD1 070109Z 15005KT 28/15 A2995 RMK A01 T02800145  RH  044%=      5-min Rain = 0
KPD1 070110Z 15006KT 28/15 A2995 RMK A01 T02800147  RH  044%=      5-min Rain = 0
KPD1 070111Z 17005KT 28/15 A2995 RMK A01 T02800145  RH  044%=      5-min Rain = 0
KPD1 070112Z 16004KT 28/15 A2995 RMK A01 T02800147  RH  044%=      5-min Rain = 0
KPD1 070113Z 17004KT 28/15 A2995 RMK A01 T02790147  RH  044%=      5-min Rain = 0
KPD1 070114Z 17005KT 28/15 A2995 RMK A01 T02790145  RH  044%=      5-min Rain = 0
KPD1 070115Z 18004KT 28/15 A2995 RMK A01 T02780145  RH  044%=      5-min Rain = 0
KPD1 070116Z 17006KT 28/15 A2995 RMK A01 T02780146  RH  045%=      5-min Rain = 0
KPD1 070117Z 16006KT 28/15 A2995 RMK A01 T02770145  RH  045%=      5-min Rain = 0
KPD1 070118Z 17005KT 28/15 A2995 RMK A01 T02760145  RH  045%=      5-min Rain = 0
KPD1 070119Z 16006KT 28/15 A2995 RMK A01 T02760145  RH  045%=      5-min Rain = 0
KPD1 070120Z 16007KT 28/15 A2995 RMK A01 T02760145  RH  045%=      5-min Rain = 0
KPD1 070121Z 16007KT 28/14 A2996 RMK A01 T02760144  RH  044%=      5-min Rain = 0
KPD1 070122Z 17006KT 28/14 A2996 RMK A01 T02760144  RH  044%=      5-min Rain = 0
KPD1 070123Z 17006KT 28/14 A2996 RMK A01 T02760144  RH  044%=      5-min Rain = 0
KPD1 070124Z 16006KT 28/14 A2995 RMK A01 T02760143  RH  044%=      5-min Rain = 0
KPD1 070125Z 17005KT 28/14 A2996 RMK A01 T02760143  RH  044%=      5-min Rain = 0
KPD1 070126Z 17006KT 28/15 A2996 RMK A01 T02760145  RH  045%=      5-min Rain = 0
KPD1 070127Z 18006KT 28/15 A2996 RMK A01 T02760145  RH  045%=      5-min Rain = 0
KPD1 070128Z 17006KT 28/14 A2996 RMK A01 T02750144  RH  045%=      5-min Rain = 0
KPD1 070129Z 16007KT 28/14 A2996 RMK A01 T02750143  RH  044%=      5-min Rain = 0
KPD1 070130Z 17006KT 28/14 A2996 RMK A01 T02760143  RH  044%=      5-min Rain = 0
KPD1 070131Z 17006KT 28/14 A2996 RMK A01 T02760143  RH  044%=      5-min Rain = 0
KPD1 070132Z 17007KT 28/14 A2996 RMK A01 T02760142  RH  044%=      5-min Rain = 0
KPD1 070133Z 17006KT 28/14 A2996 RMK A01 T02760142  RH  044%=      5-min Rain = 0
KPD1 070134Z 17005KT 28/14 A2996 RMK A01 T02760143  RH  044%=      5-min Rain = 0
KPD1 070135Z 16006KT 28/14 A2996 RMK A01 T02760143  RH  044%=      5-min Rain = 0
KPD1 070136Z 16007KT 28/14 A2996 RMK A01 T02760143  RH  044%=      5-min Rain = 0
KPD1 070137Z 16007KT 28/14 A2996 RMK A01 T02760142  RH  044%=      5-min Rain = 0
KPD1 070138Z 16006KT 28/14 A2996 RMK A01 T02760143  RH  044%=      5-min Rain = 0
KPD1 070139Z 16006KT 28/14 A2996 RMK A01 T02760141  RH  044%=      5-min Rain = 0
KPD1 070140Z 17006KT 28/14 A2996 RMK A01 T02760142  RH  044%=      5-min Rain = 0
KPD1 070141Z 17006KT 28/14 A2996 RMK A01 T02760142  RH  044%=      5-min Rain = 0
KPD1 070142Z 16006KT 28/14 A2996 RMK A01 T02750141  RH  044%=      5-min Rain = 0
KPD1 070143Z 16007KT 28/14 A2996 RMK A01 T02750141  RH  044%=      5-min Rain = 0
KPD1 070144Z 17007KT 28/14 A2996 RMK A01 T02750139  RH  043%=      5-min Rain = 0
KPD1 070145Z 17006KT 28/14 A2996 RMK A01 T02760139  RH  043%=      5-min Rain = 0
KPD1 070146Z 16007KT 28/14 A2996 RMK A01 T02760139  RH  043%=      5-min Rain = 0
KPD1 070147Z 16007KT 28/14 A2996 RMK A01 T02770139  RH  043%=      5-min Rain = 0
KPD1 070148Z 17007KT 28/14 A2995 RMK A01 T02770139  RH  043%=      5-min Rain = 0
KPD1 070149Z 16006KT 28/14 A2995 RMK A01 T02770138  RH  042%=      5-min Rain = 0
KPD1 070150Z 17007KT 28/14 A2996 RMK A01 T02780140  RH  043%=      5-min Rain = 0
KPD1 070151Z 16007KT 28/14 A2996 RMK A01 T02780140  RH  043%=      5-min Rain = 0
KPD1 070152Z 16007KT 28/14 A2996 RMK A01 T02780140  RH  043%=      5-min Rain = 0
KPD1 070153Z 16007KT 28/14 A2996 RMK A01 T02770139  RH  043%=      5-min Rain = 0
KPD1 070154Z 16008KT 28/14 A2996 RMK A01 T02780140  RH  043%=      5-min Rain = 0
KPD1 070155Z 17006KT 28/14 A2996 RMK A01 T02780139  RH  043%=      5-min Rain = 0
KPD1 070156Z 17006KT 28/14 A2996 RMK A01 T02780139  RH  042%=      5-min Rain = 0
KPD1 070157Z 17007KT 28/14 A2996 RMK A01 T02770140  RH  043%=      5-min Rain = 0
KPD1 070158Z 17007KT 28/14 A2996 RMK A01 T02770139  RH  043%=      5-min Rain = 0
KPD1 070159Z 17007KT 28/14 A2996 RMK A01 T02770139  RH  043%=      5-min Rain = 0
KPD1 070200Z 17006KT 28/14 A2996 RMK A01 T02770139  RH  043%=      5-min Rain = 0
KPD1 070201Z 17006KT 28/14 A2996 RMK A01 T02770140  RH  043%=      5-min Rain = 0
KPD1 070202Z 17007KT 28/14 A2996 RMK A01 T02770139  RH  043%=      5-min Rain = 0
KPD1 070203Z 17006KT 28/14 A2996 RMK A01 T02770140  RH  043%=      5-min Rain = 0
KPD1 070204Z 17007KT 28/14 A2996 RMK A01 T02770140  RH  043%=      5-min Rain = 0
KPD1 070205Z 17006KT 28/14 A2996 RMK A01 T02770140  RH  043%=      5-min Rain = 0
KPD1 070206Z 17008KT 28/14 A2996 RMK A01 T02770140  RH  043%=      5-min Rain = 0
KPD1 070207Z 16006KT 28/14 A2996 RMK A01 T02770140  RH  043%=      5-min Rain = 0
KPD1 070208Z 17006KT 28/14 A2996 RMK A01 T02770140  RH  043%=      5-min Rain = 0
KPD1 070209Z 17005KT 28/14 A2996 RMK A01 T02770141  RH  043%=      5-min Rain = 0
KPD1 070210Z 17005KT 28/14 A2996 RMK A01 T02770141  RH  043%=      5-min Rain = 0
KPD1 070211Z 16007KT 28/14 A2996 RMK A01 T02760140  RH  043%=      5-min Rain = 0
KPD1 070212Z 17007KT 28/14 A2996 RMK A01 T02760141  RH  043%=      5-min Rain = 0
KPD1 070213Z 17007KT 28/14 A2996 RMK A01 T02760141  RH  043%=      5-min Rain = 0
KPD1 070214Z 17006KT 28/14 A2996 RMK A01 T02760141  RH  043%=      5-min Rain = 0
KPD1 070215Z 17006KT 28/14 A2996 RMK A01 T02760140  RH  043%=      5-min Rain = 0
KPD1 070216Z 17006KT 28/14 A2996 RMK A01 T02760141  RH  043%=      5-min Rain = 0
KPD1 070217Z 18006KT 28/14 A2996 RMK A01 T02760141  RH  044%=      5-min Rain = 0
KPD1 070218Z 17006KT 28/14 A2996 RMK A01 T02760142  RH  044%=      5-min Rain = 0
KPD1 070219Z 17006KT 28/14 A2996 RMK A01 T02750143  RH  044%=      5-min Rain = 0
KPD1 070220Z 17007KT 28/14 A2996 RMK A01 T02750143  RH  044%=      5-min Rain = 0
KPD1 070221Z 17006KT 28/14 A2996 RMK A01 T02750143  RH  044%=      5-min Rain = 0
KPD1 070222Z 16005KT 27/14 A2996 RMK A01 T02740144  RH  045%=      5-min Rain = 0
KPD1 070223Z 17005KT 27/14 A2996 RMK A01 T02740143  RH  045%=      5-min Rain = 0
KPD1 070224Z 17005KT 27/14 A2996 RMK A01 T02740142  RH  044%=      5-min Rain = 0
KPD1 070225Z 17006KT 27/14 A2996 RMK A01 T02740142  RH  044%=      5-min Rain = 0
KPD1 070226Z 17008KT 27/14 A2996 RMK A01 T02740141  RH  044%=      5-min Rain = 0
KPD1 070227Z 16007KT 28/14 A2996 RMK A01 T02750141  RH  044%=      5-min Rain = 0
KPD1 070228Z 17007KT 28/14 A2996 RMK A01 T02750140  RH  043%=      5-min Rain = 0
KPD1 070229Z 16007KT 28/14 A2996 RMK A01 T02760140  RH  043%=      5-min Rain = 0
KPD1 070230Z 17006KT 28/14 A2996 RMK A01 T02770141  RH  043%=      5-min Rain = 0
KPD1 070231Z 17006KT 28/14 A2996 RMK A01 T02770141  RH  043%=      5-min Rain = 0
KPD1 070232Z 17006KT 28/14 A2996 RMK A01 T02770142  RH  043%=      5-min Rain = 0
KPD1 070233Z 17007KT 28/14 A2997 RMK A01 T02770141  RH  043%=      5-min Rain = 0
KPD1 070234Z 17007KT 28/14 A2997 RMK A01 T02770140  RH  043%=      5-min Rain = 0
KPD1 070235Z 17007KT 28/14 A2997 RMK A01 T02780140  RH  043%=      5-min Rain = 0
KPD1 070236Z 17008KT 28/14 A2997 RMK A01 T02780140  RH  043%=      5-min Rain = 0
KPD1 070237Z 16008KT 28/14 A2997 RMK A01 T02790138  RH  042%=      5-min Rain = 0
KPD1 070238Z 17008KT 28/14 A2997 RMK A01 T02810139  RH  042%=      5-min Rain = 0
KPD1 070239Z 17008KT 28/14 A2997 RMK A01 T02820139  RH  041%=      5-min Rain = 0
KPD1 070240Z 17007KT 28/14 A2997 RMK A01 T02820140  RH  042%=      5-min Rain = 0
KPD1 070241Z 17007KT 28/14 A2997 RMK A01 T02820139  RH  042%=      5-min Rain = 0
KPD1 070242Z 17006KT 28/14 A2997 RMK A01 T02820140  RH  042%=      5-min Rain = 0
KPD1 070243Z 17006KT 28/14 A2997 RMK A01 T02820141  RH  042%=      5-min Rain = 0
KPD1 070244Z 17006KT 28/14 A2997 RMK A01 T02820141  RH  042%=      5-min Rain = 0
KPD1 070245Z 18006KT 28/14 A2997 RMK A01 T02810141  RH  042%=      5-min Rain = 0
KPD1 070246Z 18005KT 28/14 A2997 RMK A01 T02810141  RH  042%=      5-min Rain = 0
KPD1 070247Z 17007KT 28/14 A2998 RMK A01 T02800141  RH  042%=      5-min Rain = 0
KPD1 070248Z 17005KT 28/14 A2998 RMK A01 T02800141  RH  043%=      5-min Rain = 0
KPD1 070249Z 17005KT 28/14 A2998 RMK A01 T02800141  RH  042%=      5-min Rain = 0
KPD1 070250Z 16006KT 28/14 A2998 RMK A01 T02810140  RH  042%=      5-min Rain = 0
KPD1 070251Z 16006KT 28/14 A2998 RMK A01 T02810140  RH  042%=      5-min Rain = 0
KPD1 070252Z 17006KT 28/14 A2998 RMK A01 T02810140  RH  042%=      5-min Rain = 0
KPD1 070253Z 17005KT 28/14 A2998 RMK A01 T02820140  RH  042%=      5-min Rain = 0
KPD1 070254Z 17007KT 28/14 A2998 RMK A01 T02830140  RH  041%=      5-min Rain = 0
KPD1 070255Z 18006KT 28/14 A2998 RMK A01 T02840141  RH  041%=      5-min Rain = 0
KPD1 070256Z 17006KT 29/14 A2998 RMK A01 T02850141  RH  041%=      5-min Rain = 0
KPD1 070257Z 17007KT 29/14 A2998 RMK A01 T02850140  RH  041%=      5-min Rain = 0
KPD1 070258Z 17007KT 29/14 A2999 RMK A01 T02860141  RH  041%=      5-min Rain = 0
KPD1 070259Z 17007KT 29/14 A2999 RMK A01 T02870140  RH  041%=      5-min Rain = 0
KPD1 070300Z 17005KT 29/14 A2999 RMK A01 T02880141  RH  041%=      5-min Rain = 0
KPD1 070301Z 17005KT 29/14 A2999 RMK A01 T02880142  RH  041%=      5-min Rain = 0
KPD1 070302Z 16007KT 29/14 A2999 RMK A01 T02890142  RH  041%=      5-min Rain = 0
KPD1 070303Z 17007KT 29/14 A2999 RMK A01 T02890142  RH  041%=      5-min Rain = 0
KPD1 070304Z 17008KT 29/14 A2999 RMK A01 T02890140  RH  040%=      5-min Rain = 0
KPD1 070305Z 17007KT 29/14 A2999 RMK A01 T02900140  RH  040%=      5-min Rain = 0
KPD1 070306Z 16010KT 29/14 A2999 RMK A01 T02910141  RH  040%=      5-min Rain = 0
KPD1 070307Z 17009KT 29/14 A2999 RMK A01 T02920141  RH  040%=      5-min Rain = 0
KPD1 070308Z 18008KT 29/14 A2999 RMK A01 T02920141  RH  040%=      5-min Rain = 0
KPD1 070309Z 18008KT 29/14 A30 RMK A01 T02930143  RH  040%=      5-min Rain = 0
KPD1 070310Z 18008KT 29/14 A30 RMK A01 T02930141  RH  039%=      5-min Rain = 0
KPD1 070311Z 19007KT 29/14 A30 RMK A01 T02930140  RH  039%=      5-min Rain = 0
KPD1 070312Z 20006KT 29/14 A30 RMK A01 T02930141  RH  039%=      5-min Rain = 0
KPD1 070313Z 19008KT 29/14 A30 RMK A01 T02930142  RH  040%=      5-min Rain = 0
KPD1 070314Z 19007KT 29/14 A30 RMK A01 T02920141  RH  040%=      5-min Rain = 0
KPD1 070315Z 20009KT 29/14 A30 RMK A01 T02920140  RH  039%=      5-min Rain = 0
KPD1 070316Z 19011G16KT 29/14 A30 RMK A01 T02920138  RH  039%=      5-min Rain = 0
KPD1 070317Z 19009G15KT 29/14 A30 RMK A01 T02920136  RH  038%=      5-min Rain = 0
KPD1 070318Z 18011KT 29/14 A30 RMK A01 T02930135  RH  038%=      5-min Rain = 0
KPD1 070319Z 19010KT 29/13 A30 RMK A01 T02930133  RH  037%=      5-min Rain = 0
KPD1 070320Z 19011KT 29/13 A30 RMK A01 T02940132  RH  037%=      5-min Rain = 0
KPD1 070321Z 18010KT 29/13 A30 RMK A01 T02940131  RH  037%=      5-min Rain = 0
KPD1 070322Z 19009G15KT 29/13 A30 RMK A01 T02940132  RH  037%=      5-min Rain = 0
KPD1 070323Z 19011KT 29/13 A30 RMK A01 T02940131  RH  037%=      5-min Rain = 0
KPD1 070324Z 18014KT 29/13 A30 RMK A01 T02940129  RH  036%=      5-min Rain = 0
KPD1 070325Z 19010KT 29/13 A30 RMK A01 T02930129  RH  036%=      5-min Rain = 0
KPD1 070326Z 20012KT 29/13 A30 RMK A01 T02930129  RH  036%=      5-min Rain = 0
KPD1 070327Z 19012KT 29/13 A30 RMK A01 T02930129  RH  036%=      5-min Rain = 0
KPD1 070328Z 20012KT 29/13 A30 RMK A01 T02930130  RH  037%=      5-min Rain = 0
KPD1 070329Z 19010KT 29/13 A30 RMK A01 T02920131  RH  037%=      5-min Rain = 0
KPD1 070330Z 18008KT 29/13 A2999 RMK A01 T02900131  RH  038%=      5-min Rain = 0
KPD1 070331Z 19010KT 29/13 A2999 RMK A01 T02890131  RH  038%=      5-min Rain = 0
KPD1 070332Z 18012G17KT 29/13 A2999 RMK A01 T02880129  RH  037%=      5-min Rain = 0
KPD1 070333Z 18011KT 29/13 A2999 RMK A01 T02870127  RH  037%=      5-min Rain = 0
KPD1 070334Z 19011KT 29/13 A2999 RMK A01 T02880127  RH  037%=      5-min Rain = 0
KPD1 070335Z 18010KT 29/13 A2999 RMK A01 T02880129  RH  037%=      5-min Rain = 0
KPD1 070336Z 18008KT 29/13 A2999 RMK A01 T02870130  RH  038%=      5-min Rain = 0
KPD1 070337Z 18008G13KT 29/13 A30 RMK A01 T02860130  RH  038%=      5-min Rain = 0
KPD1 070338Z 18010G15KT 29/13 A30 RMK A01 T02850129  RH  038%=      5-min Rain = 0
KPD1 070339Z 18009KT 28/13 A30 RMK A01 T02840128  RH  038%=      5-min Rain = 0
KPD1 070340Z 19008KT 28/13 A30 RMK A01 T02830127  RH  038%=      5-min Rain = 0
KPD1 070341Z 19007KT 28/13 A30 RMK A01 T02840128  RH  038%=      5-min Rain = 0
KPD1 070342Z 18008KT 28/13 A30 RMK A01 T02830126  RH  038%=      5-min Rain = 0
KPD1 070343Z 18008KT 28/13 A30 RMK A01 T02830126  RH  038%=      5-min Rain = 0
KPD1 070344Z 19006KT 28/13 A30 RMK A01 T02830127  RH  038%=      5-min Rain = 0
KPD1 070345Z 19008KT 28/13 A3001 RMK A01 T02820129  RH  039%=      5-min Rain = 0
KPD1 070346Z 19006KT 28/13 A3001 RMK A01 T02820129  RH  039%=      5-min Rain = 0
KPD1 070347Z 19008KT 28/13 A3001 RMK A01 T02800126  RH  039%=      5-min Rain = 0
KPD1 070348Z 19005KT 28/12 A3001 RMK A01 T02800124  RH  038%=      5-min Rain = 0
KPD1 070349Z 19004KT 28/13 A3001 RMK A01 T02810126  RH  038%=      5-min Rain = 0
KPD1 070350Z 19005KT 28/13 A3001 RMK A01 T02800126  RH  038%=      5-min Rain = 0
KPD1 070351Z 18008KT 28/13 A3001 RMK A01 T02800125  RH  038%=      5-min Rain = 0
KPD1 070352Z 18006KT 28/12 A3001 RMK A01 T02800123  RH  038%=      5-min Rain = 0
KPD1 070353Z 18006KT 28/12 A3001 RMK A01 T02800123  RH  038%=      5-min Rain = 0
KPD1 070354Z 18007KT 28/12 A3001 RMK A01 T02800124  RH  038%=      5-min Rain = 0
KPD1 070355Z 17008KT 28/12 A3001 RMK A01 T02800122  RH  038%=      5-min Rain = 0
KPD1 070356Z 18006G11KT 28/12 A3001 RMK A01 T02800122  RH  038%=      5-min Rain = 0
KPD1 070357Z 18007KT 28/12 A3001 RMK A01 T02800124  RH  038%=      5-min Rain = 0
KPD1 070358Z 16006KT 28/13 A3001 RMK A01 T02810125  RH  038%=      5-min Rain = 0
KPD1 070359Z 17007KT 28/12 A3001 RMK A01 T02800124  RH  038%=      5-min Rain = 0
KPD1 070400Z 17008KT 28/12 A3001 RMK A01 T02790124  RH  038%=      5-min Rain = 0
KPD1 070401Z 16008KT 28/12 A3001 RMK A01 T02790123  RH  038%=      5-min Rain = 0
KPD1 070402Z 14004KT 28/12 A3001 RMK A01 T02790123  RH  038%=      5-min Rain = 0
KPD1 070403Z 15006KT 28/12 A3001 RMK A01 T02780124  RH  038%=      5-min Rain = 0
KPD1 070404Z 14006KT 28/12 A3001 RMK A01 T02770124  RH  039%=      5-min Rain = 0
KPD1 070405Z 14003KT 28/13 A3001 RMK A01 T02760125  RH  039%=      5-min Rain = 0
KPD1 070406Z 12004KT 28/12 A3001 RMK A01 T02760123  RH  039%=      5-min Rain = 0
KPD1 070407Z 12003KT 28/12 A3001 RMK A01 T02750124  RH  039%=      5-min Rain = 0
KPD1 070408Z 13004KT 28/13 A3001 RMK A01 T02750125  RH  039%=      5-min Rain = 0
KPD1 070409Z 14003KT 27/13 A3001 RMK A01 T02740126  RH  040%=      5-min Rain = 0
KPD1 070410Z 16004KT 27/13 A3002 RMK A01 T02730125  RH  040%=      5-min Rain = 0
KPD1 070411Z 16004KT 27/13 A3002 RMK A01 T02720125  RH  040%=      5-min Rain = 0
KPD1 070412Z 17004KT 27/13 A3002 RMK A01 T02710125  RH  040%=      5-min Rain = 0
KPD1 070413Z 16004KT 27/13 A3002 RMK A01 T02710126  RH  041%=      5-min Rain = 0
KPD1 070414Z 17004KT 27/13 A3002 RMK A01 T02700125  RH  041%=      5-min Rain = 0
KPD1 070415Z 16005KT 27/12 A3002 RMK A01 T02690124  RH  041%=      5-min Rain = 0
KPD1 070416Z 16008KT 27/12 A3002 RMK A01 T02680124  RH  041%=      5-min Rain = 0
KPD1 070417Z 16008KT 27/12 A3002 RMK A01 T02680123  RH  040%=      5-min Rain = 0
KPD1 070418Z 17006KT 27/12 A3002 RMK A01 T02690122  RH  040%=      5-min Rain = 0
KPD1 070419Z 17005KT 27/12 A3002 RMK A01 T02700123  RH  040%=      5-min Rain = 0
KPD1 070420Z 17005KT 27/12 A3002 RMK A01 T02700124  RH  040%=      5-min Rain = 0
KPD1 070421Z 16005KT 27/12 A3002 RMK A01 T02690124  RH  041%=      5-min Rain = 0
KPD1 070422Z 16006KT 27/12 A3002 RMK A01 T02690124  RH  041%=      5-min Rain = 0
KPD1 070423Z 16006KT 27/12 A3002 RMK A01 T02680124  RH  041%=      5-min Rain = 0
KPD1 070424Z 16005KT 27/12 A3002 RMK A01 T02680124  RH  041%=      5-min Rain = 0
KPD1 070425Z 15006KT 27/12 A3002 RMK A01 T02680123  RH  041%=      5-min Rain = 0
KPD1 070426Z 16006KT 27/12 A3002 RMK A01 T02680123  RH  041%=      5-min Rain = 0
KPD1 070427Z 16005KT 27/12 A3002 RMK A01 T02680121  RH  040%=      5-min Rain = 0
KPD1 070428Z 16006KT 27/12 A3002 RMK A01 T02680122  RH  040%=      5-min Rain = 0
KPD1 070429Z 16006KT 27/12 A3002 RMK A01 T02680122  RH  040%=      5-min Rain = 0
KPD1 070430Z 16005KT 27/12 A3002 RMK A01 T02680123  RH  041%=      5-min Rain = 0
KPD1 070431Z 16004KT 27/12 A3002 RMK A01 T02670124  RH  041%=      5-min Rain = 0
KPD1 070432Z 17004KT 27/12 A3002 RMK A01 T02660123  RH  041%=      5-min Rain = 0
KPD1 070433Z 15004KT 27/12 A3002 RMK A01 T02660122  RH  041%=      5-min Rain = 0
KPD1 070434Z 16005KT 27/12 A3002 RMK A01 T02660122  RH  041%=      5-min Rain = 0
KPD1 070435Z 17005KT 27/12 A3002 RMK A01 T02660123  RH  041%=      5-min Rain = 0
KPD1 070436Z 17005KT 27/12 A3002 RMK A01 T02650124  RH  041%=      5-min Rain = 0
KPD1 070437Z 18004KT 26/12 A3002 RMK A01 T02640123  RH  041%=      5-min Rain = 0
KPD1 070438Z 17004KT 26/12 A3002 RMK A01 T02640124  RH  042%=      5-min Rain = 0
KPD1 070439Z 16004KT 26/12 A3002 RMK A01 T02630123  RH  042%=      5-min Rain = 0
KPD1 070440Z 16004KT 26/12 A3002 RMK A01 T02620122  RH  042%=      5-min Rain = 0
KPD1 070441Z 16004KT 26/12 A3002 RMK A01 T02610122  RH  042%=      5-min Rain = 0
KPD1 070442Z 16004KT 26/12 A3002 RMK A01 T02610123  RH  042%=      5-min Rain = 0
KPD1 070443Z 15003KT 26/12 A3002 RMK A01 T02600122  RH  042%=      5-min Rain = 0
KPD1 070444Z 16003KT 26/12 A3002 RMK A01 T02590122  RH  042%=      5-min Rain = 0
KPD1 070445Z 17002KT 26/12 A3002 RMK A01 T02590123  RH  043%=      5-min Rain = 0
KPD1 070446Z 17002KT 26/12 A3002 RMK A01 T02580122  RH  043%=      5-min Rain = 0
KPD1 070447Z 17003KT 26/12 A3002 RMK A01 T02570123  RH  043%=      5-min Rain = 0
KPD1 070448Z 15002KT 26/12 A3002 RMK A01 T02560122  RH  043%=      5-min Rain = 0
KPD1 070449Z 15002KT 26/12 A3002 RMK A01 T02560122  RH  043%=      5-min Rain = 0
KPD1 070450Z 14003KT 26/12 A3002 RMK A01 T02560123  RH  043%=      5-min Rain = 0
KPD1 070451Z 14003KT 26/12 A3002 RMK A01 T02550123  RH  044%=      5-min Rain = 0
KPD1 070452Z 15003KT 25/12 A3002 RMK A01 T02540124  RH  044%=      5-min Rain = 0
KPD1 070453Z 15003KT 25/13 A3002 RMK A01 T02540125  RH  045%=      5-min Rain = 0
KPD1 070454Z 15004KT 25/12 A3002 RMK A01 T02530124  RH  045%=      5-min Rain = 0
KPD1 070455Z 15004KT 25/12 A3002 RMK A01 T02520123  RH  045%=      5-min Rain = 0
KPD1 070456Z 16005KT 25/12 A3002 RMK A01 T02520124  RH  045%=      5-min Rain = 0
KPD1 070457Z 15004KT 25/13 A3002 RMK A01 T02520125  RH  045%=      5-min Rain = 0
KPD1 070458Z 16004KT 25/13 A3002 RMK A01 T02520126  RH  046%=      5-min Rain = 0
KPD1 070459Z 16004KT 25/13 A3002 RMK A01 T02510126  RH  046%=      5-min Rain = 0

Page generated in 0.1228 seconds.